Home > Products > Valid Products > TAF

000
FTUS42 KRAH 300801 AAA
TAFGSO
TAF AMD
KGSO 300801Z 3008/3106 VRB05KT P6SM FEW050 SCT250
      TEMPO 3011/3014 BKN005
     FM301800 19009KT P6SM SCT060=



000
FTUS42 KRAH 300801 AAA
TAFGSO
TAF AMD
KGSO 300801Z 3008/3106 VRB05KT P6SM FEW050 SCT250
      TEMPO 3011/3014 BKN005
     FM301800 19009KT P6SM SCT060=



000
FTUS42 KRAH 300801 AAA
TAFINT
TAF AMD
KINT 300801Z 3008/3106 VRB05KT P6SM FEW050 SCT250
      TEMPO 3011/3014 3SM BR BKN005
     FM301800 19009KT P6SM SCT060=



000
FTUS42 KRAH 300801 AAA
TAFINT
TAF AMD
KINT 300801Z 3008/3106 VRB05KT P6SM FEW050 SCT250
      TEMPO 3011/3014 3SM BR BKN005
     FM301800 19009KT P6SM SCT060=



000
FTUS42 KRAH 300740 AAA
TAFRWI
TAF AMD
KRWI 300740Z 3008/3106 16005KT P6SM FEW060 SCT250
      TEMPO 3008/3012 5SM BR BKN015=



000
FTUS42 KRAH 300740 AAA
TAFRWI
TAF AMD
KRWI 300740Z 3008/3106 16005KT P6SM FEW060 SCT250
      TEMPO 3008/3012 5SM BR BKN015=



000
FTUS42 KRAH 300740 AAA
TAFRWI
TAF AMD
KRWI 300740Z 3008/3106 16005KT P6SM FEW060 SCT250
      TEMPO 3008/3012 5SM BR BKN015=



000
FTUS42 KRAH 300535
TAFGSO
TAF
KGSO 300535Z 3006/3106 VRB05KT P6SM FEW050 SCT250
      TEMPO 3009/3013 BKN005
     FM301800 19009KT P6SM SCT060=



000
FTUS42 KRAH 300535
TAFRDU
TAF
KRDU 300535Z 3006/3106 VRB05KT P6SM FEW070 SCT250
      TEMPO 3010/3014 BKN010
     FM301800 19009KT P6SM SCT050=



000
FTUS42 KRAH 300535
TAFINT
TAF
KINT 300535Z 3006/3106 VRB05KT P6SM FEW050 SCT250
      TEMPO 3009/3013 3SM BR BKN005
     FM301800 19009KT P6SM SCT060=



000
FTUS42 KRAH 300535
TAFRWI
TAF
KRWI 300535Z 3006/3106 16005KT P6SM FEW060 SCT250
      TEMPO 3011/3015 BKN010=



000
FTUS42 KRAH 300535
TAFFAY
TAF
KFAY 300535Z 3006/3106 VRB05KT P6SM FEW050 SCT250
      TEMPO 3011/3015 BKN010
     FM301800 16007KT P6SM SCT050=



000
FTUS42 KRAH 300535
TAFRDU
TAF
KRDU 300535Z 3006/3106 VRB05KT P6SM FEW070 SCT250
      TEMPO 3010/3014 BKN010
     FM301800 19009KT P6SM SCT050=



000
FTUS42 KRAH 300535
TAFGSO
TAF
KGSO 300535Z 3006/3106 VRB05KT P6SM FEW050 SCT250
      TEMPO 3009/3013 BKN005
     FM301800 19009KT P6SM SCT060=



000
FTUS42 KRAH 300535
TAFFAY
TAF
KFAY 300535Z 3006/3106 VRB05KT P6SM FEW050 SCT250
      TEMPO 3011/3015 BKN010
     FM301800 16007KT P6SM SCT050=



000
FTUS42 KRAH 300535
TAFRWI
TAF
KRWI 300535Z 3006/3106 16005KT P6SM FEW060 SCT250
      TEMPO 3011/3015 BKN010=



000
FTUS42 KRAH 300203 AAA
TAFRDU
TAF AMD
KRDU 300203Z 3002/3024 VRB05KT P6SM SCT050
      TEMPO 3010/3014 BKN010=



000
FTUS42 KRAH 300203 AAA
TAFRDU
TAF AMD
KRDU 300203Z 3002/3024 VRB05KT P6SM SCT050
      TEMPO 3010/3014 BKN010=



000
FTUS42 KRAH 300203 AAA
TAFRDU
TAF AMD
KRDU 300203Z 3002/3024 VRB05KT P6SM SCT050
      TEMPO 3010/3014 BKN010=



000
FTUS42 KRAH 300202 AAA
TAFGSO
TAF AMD
KGSO 300202Z 3002/3024 VRB05KT P6SM SCT050
      TEMPO 3009/3013 BKN005=



000
FTUS42 KRAH 300202 AAA
TAFGSO
TAF AMD
KGSO 300202Z 3002/3024 VRB05KT P6SM SCT050
      TEMPO 3009/3013 BKN005=



000
FTUS42 KRAH 292320
TAFFAY
TAF
KFAY 292320Z 3000/3024 VRB05KT P6SM SCT050
      TEMPO 3011/3015 BKN010=



000
FTUS42 KRAH 292320
TAFRWI
TAF
KRWI 292320Z 3000/3024 VRB05KT P6SM SKC=



000
FTUS42 KRAH 292320
TAFFAY
TAF
KFAY 292320Z 3000/3024 VRB05KT P6SM SCT050
      TEMPO 3011/3015 BKN010=



000
FTUS42 KRAH 292320
TAFINT
TAF
KINT 292320Z 3000/3024 VRB05KT P6SM VCSH BKN100
     FM300100 VRB05KT P6SM SCT050
      TEMPO 3009/3013 BKN005=



000
FTUS42 KRAH 292320
TAFGSO
TAF
KGSO 292320Z 3000/3024 VRB05KT P6SM SCT050
      TEMPO 3009/3013 BKN005=



000
FTUS42 KRAH 292320
TAFINT
TAF
KINT 292320Z 3000/3024 VRB05KT P6SM VCSH BKN100
     FM300100 VRB05KT P6SM SCT050
      TEMPO 3009/3013 BKN005=



000
FTUS42 KRAH 292320
TAFRWI
TAF
KRWI 292320Z 3000/3024 VRB05KT P6SM SKC=



000
FTUS42 KRAH 292320
TAFGSO
TAF
KGSO 292320Z 3000/3024 VRB05KT P6SM SCT050
      TEMPO 3009/3013 BKN005=



000
FTUS42 KRAH 292320
TAFRDU
TAF
KRDU 292320Z 3000/3024 VRB05KT P6SM SCT050
      TEMPO 3010/3014 BKN010=



000
FTUS42 KRAH 292320
TAFRDU
TAF
KRDU 292320Z 3000/3024 VRB05KT P6SM SCT050
      TEMPO 3010/3014 BKN010=



000
FTUS42 KRAH 292251 AAA
TAFRWI
TAF AMD
KRWI 292251Z 2923/3018 VRB05KT P6SM SKC=



000
FTUS42 KRAH 292251 AAA
TAFRWI
TAF AMD
KRWI 292251Z 2923/3018 VRB05KT P6SM SKC=



000
FTUS42 KRAH 292251 AAA
TAFRWI
TAF AMD
KRWI 292251Z 2923/3018 VRB05KT P6SM SKC=



000
FTUS42 KRAH 292251 AAA
TAFRWI
TAF AMD
KRWI 292251Z 2923/3018 VRB05KT P6SM SKC=



000
FTUS42 KRAH 292250 AAA
TAFFAY
TAF AMD
KFAY 292250Z 2923/3018 VRB05KT P6SM SCT050
      TEMPO 3011/3015 BKN015=



000
FTUS42 KRAH 292250 AAA
TAFFAY
TAF AMD
KFAY 292250Z 2923/3018 VRB05KT P6SM SCT050
      TEMPO 3011/3015 BKN015=



000
FTUS42 KRAH 292249 AAA
TAFRDU
TAF AMD
KRDU 292249Z 2923/3018 VRB05KT P6SM SCT050
      TEMPO 3010/3013 BKN010=



000
FTUS42 KRAH 292249 AAA
TAFRDU
TAF AMD
KRDU 292249Z 2923/3018 VRB05KT P6SM SCT050
      TEMPO 3010/3013 BKN010=



000
FTUS42 KRAH 292249 AAA
TAFRDU
TAF AMD
KRDU 292249Z 2923/3018 VRB05KT P6SM SCT050
      TEMPO 3010/3013 BKN010=



000
FTUS42 KRAH 292248 AAC
TAFINT
TAF AMD
KINT 292248Z 2923/3018 VRB05KT P6SM VCSH BKN100
     FM300100 VRB05KT P6SM SCT035
      TEMPO 3009/3013 BKN005=



000
FTUS42 KRAH 292248 AAA
TAFGSO
TAF AMD
KGSO 292248Z 2923/3018 VRB05KT P6SM SCT050
      TEMPO 3009/3013 BKN005=



000
FTUS42 KRAH 292248 AAC
TAFINT
TAF AMD
KINT 292248Z 2923/3018 VRB05KT P6SM VCSH BKN100
     FM300100 VRB05KT P6SM SCT035
      TEMPO 3009/3013 BKN005=



000
FTUS42 KRAH 292248 AAC
TAFINT
TAF AMD
KINT 292248Z 2923/3018 VRB05KT P6SM VCSH BKN100
     FM300100 VRB05KT P6SM SCT035
      TEMPO 3009/3013 BKN005=



000
FTUS42 KRAH 292248 AAC
TAFINT
TAF AMD
KINT 292248Z 2923/3018 VRB05KT P6SM VCSH BKN100
     FM300100 VRB05KT P6SM SCT035
      TEMPO 3009/3013 BKN005=



000
FTUS42 KRAH 292248 AAA
TAFGSO
TAF AMD
KGSO 292248Z 2923/3018 VRB05KT P6SM SCT050
      TEMPO 3009/3013 BKN005=



000
FTUS42 KRAH 292248 AAA
TAFGSO
TAF AMD
KGSO 292248Z 2923/3018 VRB05KT P6SM SCT050
      TEMPO 3009/3013 BKN005=



000
FTUS42 KRAH 292248 AAA
TAFGSO
TAF AMD
KGSO 292248Z 2923/3018 VRB05KT P6SM SCT050
      TEMPO 3009/3013 BKN005=



000
FTUS42 KRAH 292003 AAB
TAFINT
TAF AMD
KINT 292003Z 2920/3018 17005KT P6SM VCTS BKN035CB
      TEMPO 2920/2921 VRB10G18KT 1SM TSRA BKN030CB
     FM300000 VRB03KT P6SM SCT035
     FM301100 20001KT 5SM BR OVC007
     FM301400 19003KT P6SM BKN050=



000
FTUS42 KRAH 292003 AAB
TAFINT
TAF AMD
KINT 292003Z 2920/3018 17005KT P6SM VCTS BKN035CB
      TEMPO 2920/2921 VRB10G18KT 1SM TSRA BKN030CB
     FM300000 VRB03KT P6SM SCT035
     FM301100 20001KT 5SM BR OVC007
     FM301400 19003KT P6SM BKN050=



000
FTUS42 KRAH 291959 AAA
TAFINT
TAF AMD
KINT 291959Z 2920/3018 17005KT P6SM VCTS BKN035CB
      TEMPO 2920/2921 35012KT 3SM TSRA BKN050CB
     FM300300 VRB03KT P6SM SCT035
     FM301100 20001KT 5SM BR OVC007
     FM301400 19003KT P6SM BKN050=



000
FTUS42 KRAH 291959 AAA
TAFINT
TAF AMD
KINT 291959Z 2920/3018 17005KT P6SM VCTS BKN035CB
      TEMPO 2920/2921 35012KT 3SM TSRA BKN050CB
     FM300300 VRB03KT P6SM SCT035
     FM301100 20001KT 5SM BR OVC007
     FM301400 19003KT P6SM BKN050=



000
FTUS42 KRAH 291959 AAA
TAFINT
TAF AMD
KINT 291959Z 2920/3018 17005KT P6SM VCTS BKN035CB
      TEMPO 2920/2921 35012KT 3SM TSRA BKN050CB
     FM300300 VRB03KT P6SM SCT035
     FM301100 20001KT 5SM BR OVC007
     FM301400 19003KT P6SM BKN050=



000
FTUS42 KRAH 291725
TAFRWI
TAF
KRWI 291725Z 2918/3018 15005KT P6SM BKN040
     FM301100 00000KT P6SM BKN020
     FM301500 17004KT P6SM BKN050=



000
FTUS42 KRAH 291725
TAFINT
TAF
KINT 291725Z 2918/3018 17005KT P6SM VCTS BKN035CB
     FM300300 VRB03KT P6SM SCT035
     FM301100 20001KT 5SM BR OVC007
     FM301400 19003KT P6SM BKN050=



000
FTUS42 KRAH 291725
TAFFAY
TAF
KFAY 291725Z 2918/3018 12005KT P6SM BKN040
     FM301100 07002KT P6SM OVC015
     FM301500 18005KT P6SM BKN050=



000
FTUS42 KRAH 291725
TAFGSO
TAF
KGSO 291725Z 2918/3018 17005KT P6SM VCTS BKN035CB
     FM300300 VRB03KT P6SM SCT035
     FM301100 20001KT 5SM BR OVC007
     FM301400 19003KT P6SM BKN050=



000
FTUS42 KRAH 291725
TAFRDU
TAF
KRDU 291725Z 2918/3018 14005KT P6SM FEW020 SCT035
     FM301100 18003KT P6SM OVC015
     FM301500 19006KT P6SM BKN050=



000
FTUS42 KRAH 291725
TAFINT
TAF
KINT 291725Z 2918/3018 17005KT P6SM VCTS BKN035CB
     FM300300 VRB03KT P6SM SCT035
     FM301100 20001KT 5SM BR OVC007
     FM301400 19003KT P6SM BKN050=



000
FTUS42 KRAH 291725
TAFGSO
TAF
KGSO 291725Z 2918/3018 17005KT P6SM VCTS BKN035CB
     FM300300 VRB03KT P6SM SCT035
     FM301100 20001KT 5SM BR OVC007
     FM301400 19003KT P6SM BKN050=



000
FTUS42 KRAH 291725
TAFRWI
TAF
KRWI 291725Z 2918/3018 15005KT P6SM BKN040
     FM301100 00000KT P6SM BKN020
     FM301500 17004KT P6SM BKN050=



000
FTUS42 KRAH 291725
TAFFAY
TAF
KFAY 291725Z 2918/3018 12005KT P6SM BKN040
     FM301100 07002KT P6SM OVC015
     FM301500 18005KT P6SM BKN050=



000
FTUS42 KRAH 291725
TAFRDU
TAF
KRDU 291725Z 2918/3018 14005KT P6SM FEW020 SCT035
     FM301100 18003KT P6SM OVC015
     FM301500 19006KT P6SM BKN050=



000
FTUS42 KRAH 291725
TAFGSO
TAF
KGSO 291725Z 2918/3018 17005KT P6SM VCTS BKN035CB
     FM300300 VRB03KT P6SM SCT035
     FM301100 20001KT 5SM BR OVC007
     FM301400 19003KT P6SM BKN050=



000
FTUS42 KRAH 291725
TAFFAY
TAF
KFAY 291725Z 2918/3018 12005KT P6SM BKN040
     FM301100 07002KT P6SM OVC015
     FM301500 18005KT P6SM BKN050=



000
FTUS42 KRAH 291725
TAFRWI
TAF
KRWI 291725Z 2918/3018 15005KT P6SM BKN040
     FM301100 00000KT P6SM BKN020
     FM301500 17004KT P6SM BKN050=



000
FTUS42 KRAH 291725
TAFRDU
TAF
KRDU 291725Z 2918/3018 14005KT P6SM FEW020 SCT035
     FM301100 18003KT P6SM OVC015
     FM301500 19006KT P6SM BKN050=



000
FTUS42 KRAH 291725
TAFINT
TAF
KINT 291725Z 2918/3018 17005KT P6SM VCTS BKN035CB
     FM300300 VRB03KT P6SM SCT035
     FM301100 20001KT 5SM BR OVC007
     FM301400 19003KT P6SM BKN050=



000
FTUS42 KRAH 291643 AAA
TAFINT
TAF AMD
KINT 291643Z 2917/3012 19007KT P6SM VCTS SCT035CB BKN250=



000
FTUS42 KRAH 291643 AAA
TAFINT
TAF AMD
KINT 291643Z 2917/3012 19007KT P6SM VCTS SCT035CB BKN250=



000
FTUS42 KRAH 291606 AAC
TAFGSO
TAF AMD
KGSO 291606Z 2916/3012 19007KT P6SM FEW020 SCT035 BKN250
      TEMPO 2916/2918 TSRA BKN027CB=



000
FTUS42 KRAH 291606 AAC
TAFGSO
TAF AMD
KGSO 291606Z 2916/3012 19007KT P6SM FEW020 SCT035 BKN250
      TEMPO 2916/2918 TSRA BKN027CB=



000
FTUS42 KRAH 291222 AAB
TAFGSO
TAF AMD
KGSO 291222Z 2912/3012 VRB03KT P6SM FEW010 SCT050
     FM291600 19007KT P6SM FEW020 SCT035 BKN250=



000
FTUS42 KRAH 291222 AAB
TAFGSO
TAF AMD
KGSO 291222Z 2912/3012 VRB03KT P6SM FEW010 SCT050
     FM291600 19007KT P6SM FEW020 SCT035 BKN250=



000
FTUS42 KRAH 291222 AAB
TAFGSO
TAF AMD
KGSO 291222Z 2912/3012 VRB03KT P6SM FEW010 SCT050
     FM291600 19007KT P6SM FEW020 SCT035 BKN250=



000
FTUS42 KRAH 291222 AAB
TAFGSO
TAF AMD
KGSO 291222Z 2912/3012 VRB03KT P6SM FEW010 SCT050
     FM291600 19007KT P6SM FEW020 SCT035 BKN250=



000
FTUS42 KRAH 291133 AAA
TAFGSO
TAF AMD
KGSO 291133Z 2912/3012 VRB03KT P6SM FEW010 SCT050
      TEMPO 2912/2914 5SM BR BKN005
     FM291600 19007KT P6SM FEW020 SCT035 BKN250=



000
FTUS42 KRAH 291133 AAA
TAFGSO
TAF AMD
KGSO 291133Z 2912/3012 VRB03KT P6SM FEW010 SCT050
      TEMPO 2912/2914 5SM BR BKN005
     FM291600 19007KT P6SM FEW020 SCT035 BKN250=



000
FTUS42 KRAH 291133 AAA
TAFGSO
TAF AMD
KGSO 291133Z 2912/3012 VRB03KT P6SM FEW010 SCT050
      TEMPO 2912/2914 5SM BR BKN005
     FM291600 19007KT P6SM FEW020 SCT035 BKN250=



000
FTUS42 KRAH 291132
TAFINT
TAF
KINT 291132Z 2912/3012 VRB03KT P6SM FEW010 SCT050
      TEMPO 2912/2914 5SM BR SCT010 BKN015
     FM291600 19007KT P6SM FEW020 SCT035 BKN250=



000
FTUS42 KRAH 291132
TAFRWI
TAF
KRWI 291132Z 2912/3012 VRB04KT P6SM SCT040
      TEMPO 2912/2915 6SM BR SCT015
     FM291500 16005KT P6SM FEW020 SCT035 SCT250=



000
FTUS42 KRAH 291132
TAFFAY
TAF
KFAY 291132Z 2912/3012 VRB04KT P6SM SCT040
      TEMPO 2912/2915 6SM BR SCT015
     FM291600 16007KT P6SM FEW020 SCT035 BKN250=



000
FTUS42 KRAH 291132
TAFRDU
TAF
KRDU 291132Z 2912/3012 21005KT P6SM FEW040
      TEMPO 2912/2915 6SM BR SCT015
     FM291600 19007KT P6SM FEW020 SCT035 BKN250=



000
FTUS42 KRAH 291132
TAFGSO
TAF
KGSO 291132Z 2912/3012 VRB03KT P6SM FEW010 SCT050
      TEMPO 2912/2914 5SM BR SCT010 BKN015
     FM291600 19007KT P6SM FEW020 SCT035 BKN250=



000
FTUS42 KRAH 291132
TAFRWI
TAF
KRWI 291132Z 2912/3012 VRB04KT P6SM SCT040
      TEMPO 2912/2915 6SM BR SCT015
     FM291500 16005KT P6SM FEW020 SCT035 SCT250=



000
FTUS42 KRAH 291132
TAFRDU
TAF
KRDU 291132Z 2912/3012 21005KT P6SM FEW040
      TEMPO 2912/2915 6SM BR SCT015
     FM291600 19007KT P6SM FEW020 SCT035 BKN250=



000
FTUS42 KRAH 291132
TAFFAY
TAF
KFAY 291132Z 2912/3012 VRB04KT P6SM SCT040
      TEMPO 2912/2915 6SM BR SCT015
     FM291600 16007KT P6SM FEW020 SCT035 BKN250=



000
FTUS42 KRAH 291132
TAFINT
TAF
KINT 291132Z 2912/3012 VRB03KT P6SM FEW010 SCT050
      TEMPO 2912/2914 5SM BR SCT010 BKN015
     FM291600 19007KT P6SM FEW020 SCT035 BKN250=



000
FTUS42 KRAH 291132
TAFGSO
TAF
KGSO 291132Z 2912/3012 VRB03KT P6SM FEW010 SCT050
      TEMPO 2912/2914 5SM BR SCT010 BKN015
     FM291600 19007KT P6SM FEW020 SCT035 BKN250=



000
FTUS42 KRAH 291037 AAC
TAFRWI
TAF AMD
KRWI 291037Z 2911/3006 VRB04KT P6SM SCT040
      TEMPO 2912/2915 6SM BR SCT015
     FM291500 16005KT P6SM FEW020 SCT035 SCT250=



000
FTUS42 KRAH 291037 AAC
TAFRWI
TAF AMD
KRWI 291037Z 2911/3006 VRB04KT P6SM SCT040
      TEMPO 2912/2915 6SM BR SCT015
     FM291500 16005KT P6SM FEW020 SCT035 SCT250=



000
FTUS42 KRAH 291035 AAB
TAFFAY
TAF AMD
KFAY 291035Z 2911/3006 VRB04KT P6SM SCT040
      TEMPO 2912/2915 6SM BR SCT015
     FM291600 16007KT P6SM FEW020 SCT035 BKN250=



000
FTUS42 KRAH 291035 AAB
TAFFAY
TAF AMD
KFAY 291035Z 2911/3006 VRB04KT P6SM SCT040
      TEMPO 2912/2915 6SM BR SCT015
     FM291600 16007KT P6SM FEW020 SCT035 BKN250=



000
FTUS42 KRAH 291031 AAD
TAFRDU
TAF AMD
KRDU 291031Z 2911/3006 21005KT P6SM FEW040
      TEMPO 2912/2915 6SM BR SCT015
     FM291600 19007KT P6SM FEW020 SCT035 BKN250=



000
FTUS42 KRAH 291031 AAD
TAFRDU
TAF AMD
KRDU 291031Z 2911/3006 21005KT P6SM FEW040
      TEMPO 2912/2915 6SM BR SCT015
     FM291600 19007KT P6SM FEW020 SCT035 BKN250=



000
FTUS42 KRAH 291031 AAD
TAFRDU
TAF AMD
KRDU 291031Z 2911/3006 21005KT P6SM FEW040
      TEMPO 2912/2915 6SM BR SCT015
     FM291600 19007KT P6SM FEW020 SCT035 BKN250=



000
FTUS42 KRAH 291018 AAC
TAFINT
TAF AMD
KINT 291018Z 2910/3006 VRB03KT P6SM FEW010 SCT050
      TEMPO 2911/2914 5SM BR SCT010 BKN015
     FM291600 19007KT P6SM FEW020 SCT035 BKN250=



000
FTUS42 KRAH 291018 AAC
TAFINT
TAF AMD
KINT 291018Z 2910/3006 VRB03KT P6SM FEW010 SCT050
      TEMPO 2911/2914 5SM BR SCT010 BKN015
     FM291600 19007KT P6SM FEW020 SCT035 BKN250=



000
FTUS42 KRAH 291018 AAC
TAFGSO
TAF AMD
KGSO 291018Z 2910/3006 VRB03KT P6SM FEW010 SCT050
      TEMPO 2911/2914 5SM BR SCT010 BKN015
     FM291600 19007KT P6SM FEW020 SCT035 BKN250=



000
FTUS42 KRAH 291018 AAC
TAFGSO
TAF AMD
KGSO 291018Z 2910/3006 VRB03KT P6SM FEW010 SCT050
      TEMPO 2911/2914 5SM BR SCT010 BKN015
     FM291600 19007KT P6SM FEW020 SCT035 BKN250=



000
FTUS42 KRAH 290914 AAC
TAFRDU
TAF AMD
KRDU 290914Z 2909/3006 VRB03KT P6SM FEW050 SCT060
     FM291200 21005KT P6SM SCT015
     FM291600 19007KT P6SM FEW020 SCT035 BKN250=



000
FTUS42 KRAH 290914 AAC
TAFRDU
TAF AMD
KRDU 290914Z 2909/3006 VRB03KT P6SM FEW050 SCT060
     FM291200 21005KT P6SM SCT015
     FM291600 19007KT P6SM FEW020 SCT035 BKN250=



000
FTUS42 KRAH 290900 AAB
TAFRWI
TAF AMD
KRWI 290900Z 2909/3006 VRB04KT P6SM SCT070 SCT250
      TEMPO 2910/2912 5SM BR SCT005
     FM291200 VRB04KT P6SM FEW008 BKN015
     FM291500 16005KT P6SM FEW020 SCT035 BKN250=



000
FTUS42 KRAH 290857 AAB
TAFINT
TAF AMD
KINT 290857Z 2909/3006 VRB03KT P6SM FEW050 BKN250
      TEMPO 2910/2912 2SM BR BKN005
     FM291200 21005KT P6SM BKN015
     FM291600 19007KT P6SM FEW020 SCT035 BKN250=



000
FTUS42 KRAH 290857 AAB
TAFGSO
TAF AMD
KGSO 290857Z 2909/3006 VRB03KT P6SM FEW040 SCT150 BKN250
      TEMPO 2910/2912 2SM BR BKN005
     FM291200 21005KT P6SM BKN015
     FM291600 19007KT P6SM FEW020 SCT035 BKN250=



000
FTUS42 KRAH 290857 AAB
TAFGSO
TAF AMD
KGSO 290857Z 2909/3006 VRB03KT P6SM FEW040 SCT150 BKN250
      TEMPO 2910/2912 2SM BR BKN005
     FM291200 21005KT P6SM BKN015
     FM291600 19007KT P6SM FEW020 SCT035 BKN250=



000
FTUS42 KRAH 290857 AAB
TAFGSO
TAF AMD
KGSO 290857Z 2909/3006 VRB03KT P6SM FEW040 SCT150 BKN250
      TEMPO 2910/2912 2SM BR BKN005
     FM291200 21005KT P6SM BKN015
     FM291600 19007KT P6SM FEW020 SCT035 BKN250=



000
FTUS42 KRAH 290857 AAB
TAFGSO
TAF AMD
KGSO 290857Z 2909/3006 VRB03KT P6SM FEW040 SCT150 BKN250
      TEMPO 2910/2912 2SM BR BKN005
     FM291200 21005KT P6SM BKN015
     FM291600 19007KT P6SM FEW020 SCT035 BKN250=



000
FTUS42 KRAH 290857 AAB
TAFINT
TAF AMD
KINT 290857Z 2909/3006 VRB03KT P6SM FEW050 BKN250
      TEMPO 2910/2912 2SM BR BKN005
     FM291200 21005KT P6SM BKN015
     FM291600 19007KT P6SM FEW020 SCT035 BKN250=



000
FTUS42 KRAH 290818 AAB
TAFRDU
TAF AMD
KRDU 290818Z 2908/3006 VRB03KT P6SM SCT035 SCT250
      TEMPO 2910/2912 3SM BR FEW005 SCT030
     FM291200 21005KT P6SM SCT015
     FM291600 19007KT P6SM FEW020 SCT035 BKN250=



000
FTUS42 KRAH 290818 AAB
TAFRDU
TAF AMD
KRDU 290818Z 2908/3006 VRB03KT P6SM SCT035 SCT250
      TEMPO 2910/2912 3SM BR FEW005 SCT030
     FM291200 21005KT P6SM SCT015
     FM291600 19007KT P6SM FEW020 SCT035 BKN250=



000
FTUS42 KRAH 290734 AAA
TAFRWI
TAF AMD
KRWI 290734Z 2908/3006 VRB04KT P6SM SCT070 SCT250
      TEMPO 2910/2912 2SM BR SCT005
     FM291200 VRB04KT P6SM FEW008 BKN015
     FM291500 16005KT P6SM FEW020 SCT035 BKN250=



000
FTUS42 KRAH 290734 AAA
TAFRWI
TAF AMD
KRWI 290734Z 2908/3006 VRB04KT P6SM SCT070 SCT250
      TEMPO 2910/2912 2SM BR SCT005
     FM291200 VRB04KT P6SM FEW008 BKN015
     FM291500 16005KT P6SM FEW020 SCT035 BKN250=



000
FTUS42 KRAH 290734 AAA
TAFFAY
TAF AMD
KFAY 290734Z 2908/3006 VRB04KT P6SM FEW050 SCT250
      TEMPO 2910/2912 5SM BR SCT005
     FM291200 VRB04KT P6SM FEW008 BKN015
     FM291500 16007KT P6SM FEW020 SCT035 BKN250=



000
FTUS42 KRAH 290734 AAA
TAFFAY
TAF AMD
KFAY 290734Z 2908/3006 VRB04KT P6SM FEW050 SCT250
      TEMPO 2910/2912 5SM BR SCT005
     FM291200 VRB04KT P6SM FEW008 BKN015
     FM291500 16007KT P6SM FEW020 SCT035 BKN250=



000
FTUS42 KRAH 290734 AAA
TAFFAY
TAF AMD
KFAY 290734Z 2908/3006 VRB04KT P6SM FEW050 SCT250
      TEMPO 2910/2912 5SM BR SCT005
     FM291200 VRB04KT P6SM FEW008 BKN015
     FM291500 16007KT P6SM FEW020 SCT035 BKN250=



000
FTUS42 KRAH 290733 AAA
TAFRDU
TAF AMD
KRDU 290733Z 2908/3006 VRB03KT P6SM SCT040 SCT250
      TEMPO 2910/2912 3SM BR SCT005
     FM291200 21005KT P6SM BKN015
     FM291600 19007KT P6SM FEW020 SCT035 BKN250=



000
FTUS42 KRAH 290732 AAA
TAFGSO
TAF AMD
KGSO 290732Z 2908/3006 VRB03KT P6SM FEW040 SCT150 BKN250
      TEMPO 2909/2912 2SM BR BKN005
     FM291200 21005KT P6SM BKN015
     FM291600 19007KT P6SM FEW020 SCT035 BKN250=



000
FTUS42 KRAH 290732 AAA
TAFGSO
TAF AMD
KGSO 290732Z 2908/3006 VRB03KT P6SM FEW040 SCT150 BKN250
      TEMPO 2909/2912 2SM BR BKN005
     FM291200 21005KT P6SM BKN015
     FM291600 19007KT P6SM FEW020 SCT035 BKN250=



000
FTUS42 KRAH 290731 AAA
TAFINT
TAF AMD
KINT 290731Z 2908/3006 VRB03KT P6SM FEW050 BKN250
      TEMPO 2909/2912 2SM BR BKN005
     FM291200 21005KT P6SM BKN015
     FM291600 19007KT P6SM FEW020 SCT035 BKN250=



000
FTUS42 KRAH 290731 AAA
TAFINT
TAF AMD
KINT 290731Z 2908/3006 VRB03KT P6SM FEW050 BKN250
      TEMPO 2909/2912 2SM BR BKN005
     FM291200 21005KT P6SM BKN015
     FM291600 19007KT P6SM FEW020 SCT035 BKN250=



000
FTUS42 KRAH 290731 AAA
TAFINT
TAF AMD
KINT 290731Z 2908/3006 VRB03KT P6SM FEW050 BKN250
      TEMPO 2909/2912 2SM BR BKN005
     FM291200 21005KT P6SM BKN015
     FM291600 19007KT P6SM FEW020 SCT035 BKN250=



000
FTUS42 KRAH 290534
TAFRDU
TAF
KRDU 290534Z 2906/3006 VRB03KT P6SM SCT050
      TEMPO 2908/2912 2SM BR SCT005
     FM291200 21005KT P6SM BKN015
     FM291600 19007KT P6SM FEW020 SCT035 BKN250=



000
FTUS42 KRAH 290534
TAFGSO
TAF
KGSO 290534Z 2906/3006 VRB03KT P6SM FEW050 BKN250
      TEMPO 2908/2912 2SM BR BKN005
     FM291200 21005KT P6SM BKN015
     FM291600 19007KT P6SM FEW020 SCT035 BKN250=



000
FTUS42 KRAH 290534
TAFINT
TAF
KINT 290534Z 2906/3006 VRB03KT P6SM FEW050 BKN250
      TEMPO 2908/2912 2SM BR BKN005
     FM291200 21005KT P6SM BKN015
     FM291600 19007KT P6SM FEW020 SCT035 BKN250=



000
FTUS42 KRAH 290534
TAFINT
TAF
KINT 290534Z 2906/3006 VRB03KT P6SM FEW050 BKN250
      TEMPO 2908/2912 2SM BR BKN005
     FM291200 21005KT P6SM BKN015
     FM291600 19007KT P6SM FEW020 SCT035 BKN250=



000
FTUS42 KRAH 290534
TAFGSO
TAF
KGSO 290534Z 2906/3006 VRB03KT P6SM FEW050 BKN250
      TEMPO 2908/2912 2SM BR BKN005
     FM291200 21005KT P6SM BKN015
     FM291600 19007KT P6SM FEW020 SCT035 BKN250=



000
FTUS42 KRAH 290534
TAFFAY
TAF
KFAY 290534Z 2906/3006 VRB04KT P6SM FEW050 SCT250
      TEMPO 2908/2912 5SM BR SCT005
     FM291200 VRB04KT P6SM FEW008 BKN015
     FM291500 16007KT P6SM FEW020 SCT035 BKN250=



000
FTUS42 KRAH 290534
TAFRWI
TAF
KRWI 290534Z 2906/3006 VRB04KT P6SM FEW050 SCT250
      TEMPO 2908/2912 2SM BR SCT005
     FM291200 VRB04KT P6SM FEW008 BKN015
     FM291500 16005KT P6SM FEW020 SCT035 BKN250=



000
FTUS42 KRAH 290534
TAFRDU
TAF
KRDU 290534Z 2906/3006 VRB03KT P6SM SCT050
      TEMPO 2908/2912 2SM BR SCT005
     FM291200 21005KT P6SM BKN015
     FM291600 19007KT P6SM FEW020 SCT035 BKN250=



000
FTUS42 KRAH 290534
TAFRWI
TAF
KRWI 290534Z 2906/3006 VRB04KT P6SM FEW050 SCT250
      TEMPO 2908/2912 2SM BR SCT005
     FM291200 VRB04KT P6SM FEW008 BKN015
     FM291500 16005KT P6SM FEW020 SCT035 BKN250=



000
FTUS42 KRAH 290534
TAFFAY
TAF
KFAY 290534Z 2906/3006 VRB04KT P6SM FEW050 SCT250
      TEMPO 2908/2912 5SM BR SCT005
     FM291200 VRB04KT P6SM FEW008 BKN015
     FM291500 16007KT P6SM FEW020 SCT035 BKN250=



000
FTUS42 KRAH 290159 AAD
TAFRDU
TAF AMD
KRDU 290159Z 2902/2924 VRB05KT P6SM VCTS SCT050CB
      TEMPO 2902/2903 3SM SHRA BKN030
     FM290300 VRB05KT P6SM SCT050
      TEMPO 2908/2912 5SM BR SCT005=



000
FTUS42 KRAH 290159 AAD
TAFRDU
TAF AMD
KRDU 290159Z 2902/2924 VRB05KT P6SM VCTS SCT050CB
      TEMPO 2902/2903 3SM SHRA BKN030
     FM290300 VRB05KT P6SM SCT050
      TEMPO 2908/2912 5SM BR SCT005=



000
FTUS42 KRAH 290153 AAC
TAFRDU
TAF AMD
KRDU 290153Z 2902/2924 VRB05KT P6SM VCTS SCT050CB
     FM290300 VRB05KT P6SM SCT050
      TEMPO 2908/2912 5SM BR SCT005=



000
FTUS42 KRAH 290153 AAC
TAFRDU
TAF AMD
KRDU 290153Z 2902/2924 VRB05KT P6SM VCTS SCT050CB
     FM290300 VRB05KT P6SM SCT050
      TEMPO 2908/2912 5SM BR SCT005=



000
FTUS42 KRAH 290153 AAA
TAFGSO
TAF AMD
KGSO 290153Z 2902/2924 18005KT P6SM VCSH SCT050
     FM290300 VRB05KT P6SM SCT050
      TEMPO 2908/2912 2SM BR BKN005=



000
FTUS42 KRAH 290153 AAA
TAFGSO
TAF AMD
KGSO 290153Z 2902/2924 18005KT P6SM VCSH SCT050
     FM290300 VRB05KT P6SM SCT050
      TEMPO 2908/2912 2SM BR BKN005=



000
FTUS42 KRAH 290153 AAC
TAFRDU
TAF AMD
KRDU 290153Z 2902/2924 VRB05KT P6SM VCTS SCT050CB
     FM290300 VRB05KT P6SM SCT050
      TEMPO 2908/2912 5SM BR SCT005=



000
FTUS42 KRAH 290153 AAC
TAFRDU
TAF AMD
KRDU 290153Z 2902/2924 VRB05KT P6SM VCTS SCT050CB
     FM290300 VRB05KT P6SM SCT050
      TEMPO 2908/2912 5SM BR SCT005=



000
FTUS42 KRAH 290152 AAA
TAFINT
TAF AMD
KINT 290152Z 2902/2924 VRB05KT P6SM VCSH SCT050
     FM290300 VRB05KT P6SM SCT050
      TEMPO 2908/2912 2SM BR BKN005=



000
FTUS42 KRAH 290152 AAA
TAFINT
TAF AMD
KINT 290152Z 2902/2924 VRB05KT P6SM VCSH SCT050
     FM290300 VRB05KT P6SM SCT050
      TEMPO 2908/2912 2SM BR BKN005=



000
FTUS42 KRAH 290152 AAA
TAFINT
TAF AMD
KINT 290152Z 2902/2924 VRB05KT P6SM VCSH SCT050
     FM290300 VRB05KT P6SM SCT050
      TEMPO 2908/2912 2SM BR BKN005=



000
FTUS42 KRAH 290115 AAB
TAFRDU
TAF AMD
KRDU 290115Z 2901/2924 VRB05KT P6SM VCTS SCT050CB
     FM290200 VRB05KT P6SM SCT050
      TEMPO 2908/2912 5SM BR SCT005=



000
FTUS42 KRAH 290115 AAB
TAFRDU
TAF AMD
KRDU 290115Z 2901/2924 VRB05KT P6SM VCTS SCT050CB
     FM290200 VRB05KT P6SM SCT050
      TEMPO 2908/2912 5SM BR SCT005=



000
FTUS42 KRAH 290039 AAA
TAFRDU
TAF AMD
KRDU 290039Z 2901/2924 VRB05KT P6SM VCSH SCT050
     FM290200 VRB05KT P6SM SCT050
      TEMPO 2908/2912 5SM BR SCT005=



000
FTUS42 KRAH 282320
TAFFAY
TAF
KFAY 282320Z 2900/2924 VRB05KT P6SM SCT050
      TEMPO 2908/2912 5SM BR SCT005=



000
FTUS42 KRAH 282320
TAFGSO
TAF
KGSO 282320Z 2900/2924 VRB05KT P6SM SCT050
      TEMPO 2908/2912 2SM BR BKN005=



000
FTUS42 KRAH 282320
TAFINT
TAF
KINT 282320Z 2900/2924 VRB05KT P6SM VCSH SCT050
     FM290100 VRB05KT P6SM SCT050
      TEMPO 2908/2912 2SM BR BKN005=



000
FTUS42 KRAH 282320
TAFRDU
TAF
KRDU 282320Z 2900/2924 VRB05KT P6SM SCT050
      TEMPO 2908/2912 5SM BR SCT005=



000
FTUS42 KRAH 282320
TAFGSO
TAF
KGSO 282320Z 2900/2924 VRB05KT P6SM SCT050
      TEMPO 2908/2912 2SM BR BKN005=



000
FTUS42 KRAH 282320
TAFGSO
TAF
KGSO 282320Z 2900/2924 VRB05KT P6SM SCT050
      TEMPO 2908/2912 2SM BR BKN005=



000
FTUS42 KRAH 282320
TAFGSO
TAF
KGSO 282320Z 2900/2924 VRB05KT P6SM SCT050
      TEMPO 2908/2912 2SM BR BKN005=



000
FTUS42 KRAH 282320
TAFRDU
TAF
KRDU 282320Z 2900/2924 VRB05KT P6SM SCT050
      TEMPO 2908/2912 5SM BR SCT005=



000
FTUS42 KRAH 282320
TAFINT
TAF
KINT 282320Z 2900/2924 VRB05KT P6SM VCSH SCT050
     FM290100 VRB05KT P6SM SCT050
      TEMPO 2908/2912 2SM BR BKN005=



000
FTUS42 KRAH 282320
TAFRWI
TAF
KRWI 282320Z 2900/2924 VRB05KT P6SM SCT050
      TEMPO 2908/2912 2SM BR SCT005=



000
FTUS42 KRAH 282320
TAFINT
TAF
KINT 282320Z 2900/2924 VRB05KT P6SM VCSH SCT050
     FM290100 VRB05KT P6SM SCT050
      TEMPO 2908/2912 2SM BR BKN005=



000
FTUS42 KRAH 282320
TAFRDU
TAF
KRDU 282320Z 2900/2924 VRB05KT P6SM SCT050
      TEMPO 2908/2912 5SM BR SCT005=



000
FTUS42 KRAH 282320
TAFFAY
TAF
KFAY 282320Z 2900/2924 VRB05KT P6SM SCT050
      TEMPO 2908/2912 5SM BR SCT005=



000
FTUS42 KRAH 282320
TAFFAY
TAF
KFAY 282320Z 2900/2924 VRB05KT P6SM SCT050
      TEMPO 2908/2912 5SM BR SCT005=



000
FTUS42 KRAH 282320
TAFFAY
TAF
KFAY 282320Z 2900/2924 VRB05KT P6SM SCT050
      TEMPO 2908/2912 5SM BR SCT005=



000
FTUS42 KRAH 282320
TAFINT
TAF
KINT 282320Z 2900/2924 VRB05KT P6SM VCSH SCT050
     FM290100 VRB05KT P6SM SCT050
      TEMPO 2908/2912 2SM BR BKN005=



000
FTUS42 KRAH 282320
TAFRDU
TAF
KRDU 282320Z 2900/2924 VRB05KT P6SM SCT050
      TEMPO 2908/2912 5SM BR SCT005=



000
FTUS42 KRAH 282320
TAFRWI
TAF
KRWI 282320Z 2900/2924 VRB05KT P6SM SCT050
      TEMPO 2908/2912 2SM BR SCT005=



000
FTUS42 KRAH 281956 AAA
TAFRWI
TAF AMD
KRWI 281956Z 2820/2918 20008KT P6SM VCSH SCT035
     FM290000 VRB05KT P6SM SCT035
      TEMPO 2908/2912 2SM BR SCT002=



000
FTUS42 KRAH 281956 AAA
TAFRWI
TAF AMD
KRWI 281956Z 2820/2918 20008KT P6SM VCSH SCT035
     FM290000 VRB05KT P6SM SCT035
      TEMPO 2908/2912 2SM BR SCT002=



000
FTUS42 KRAH 281955 AAA
TAFFAY
TAF AMD
KFAY 281955Z 2820/2918 VRB05KT P6SM VCSH SCT035
     FM290000 VRB05KT P6SM SCT035
      TEMPO 2909/2913 5SM BR SCT003=



000
FTUS42 KRAH 281955 AAA
TAFFAY
TAF AMD
KFAY 281955Z 2820/2918 VRB05KT P6SM VCSH SCT035
     FM290000 VRB05KT P6SM SCT035
      TEMPO 2909/2913 5SM BR SCT003=



000
FTUS42 KRAH 281955 AAA
TAFFAY
TAF AMD
KFAY 281955Z 2820/2918 VRB05KT P6SM VCSH SCT035
     FM290000 VRB05KT P6SM SCT035
      TEMPO 2909/2913 5SM BR SCT003=



000
FTUS42 KRAH 281955 AAA
TAFFAY
TAF AMD
KFAY 281955Z 2820/2918 VRB05KT P6SM VCSH SCT035
     FM290000 VRB05KT P6SM SCT035
      TEMPO 2909/2913 5SM BR SCT003=



000
FTUS42 KRAH 281954 AAA
TAFGSO
TAF AMD
KGSO 281954Z 2820/2918 VRB05KT P6SM VCSH SCT035
     FM290000 VRB05KT P6SM SCT035
      TEMPO 2909/2913 2SM BR BKN003=



000
FTUS42 KRAH 281954 AAA
TAFGSO
TAF AMD
KGSO 281954Z 2820/2918 VRB05KT P6SM VCSH SCT035
     FM290000 VRB05KT P6SM SCT035
      TEMPO 2909/2913 2SM BR BKN003=



000
FTUS42 KRAH 281954 AAA
TAFINT
TAF AMD
KINT 281954Z 2820/2918 20008KT P6SM VCSH SCT035
     FM290000 VRB05KT P6SM SCT035
      TEMPO 2909/2913 2SM BR BKN003=



000
FTUS42 KRAH 281954 AAA
TAFINT
TAF AMD
KINT 281954Z 2820/2918 20008KT P6SM VCSH SCT035
     FM290000 VRB05KT P6SM SCT035
      TEMPO 2909/2913 2SM BR BKN003=



000
FTUS42 KRAH 281951 AAA
TAFRDU
TAF AMD
KRDU 281951Z 2820/2918 VRB05KT P6SM SCT035
      TEMPO 2820/2821 VRB10G15KT 3SM SHRA BKN025=



000
FTUS42 KRAH 281732
TAFRWI
TAF
KRWI 281732Z 2818/2918 20004KT P6SM BKN040
      TEMPO 2818/2820 BKN025
     FM290000 17003KT P6SM SCT040
      TEMPO 2910/2913 2SM BR BKN006
     FM291700 15007KT P6SM BKN050=



000
FTUS42 KRAH 281732
TAFGSO
TAF
KGSO 281732Z 2818/2918 20004KT P6SM VCSH BKN040
     FM290000 18003KT P6SM SCT040
      TEMPO 2910/2913 3SM BR SCT004
     FM291700 17007KT P6SM BKN050=



000
FTUS42 KRAH 281732
TAFGSO
TAF
KGSO 281732Z 2818/2918 20004KT P6SM VCSH BKN040
     FM290000 18003KT P6SM SCT040
      TEMPO 2910/2913 3SM BR SCT004
     FM291700 17007KT P6SM BKN050=



000
FTUS42 KRAH 281732
TAFRDU
TAF
KRDU 281732Z 2818/2918 20004KT P6SM BKN040
     FM290000 18003KT P6SM SCT040
      TEMPO 2910/2913 4SM BR SCT006
     FM291700 17007KT P6SM BKN050=



000
FTUS42 KRAH 281732
TAFRWI
TAF
KRWI 281732Z 2818/2918 20004KT P6SM BKN040
      TEMPO 2818/2820 BKN025
     FM290000 17003KT P6SM SCT040
      TEMPO 2910/2913 2SM BR BKN006
     FM291700 15007KT P6SM BKN050=



000
FTUS42 KRAH 281732
TAFFAY
TAF
KFAY 281732Z 2818/2918 20004KT P6SM BKN040
      TEMPO 2818/2820 BKN025
     FM290000 17003KT P6SM SCT040
      TEMPO 2910/2913 2SM BR BKN006
     FM291700 15007KT P6SM BKN050=



000
FTUS42 KRAH 281732
TAFRDU
TAF
KRDU 281732Z 2818/2918 20004KT P6SM BKN040
     FM290000 18003KT P6SM SCT040
      TEMPO 2910/2913 4SM BR SCT006
     FM291700 17007KT P6SM BKN050=



000
FTUS42 KRAH 281732
TAFINT
TAF
KINT 281732Z 2818/2918 20004KT P6SM VCSH BKN040
     FM290000 18003KT P6SM SCT040
      TEMPO 2910/2913 3SM BR SCT004
     FM291700 17007KT P6SM BKN050=



000
FTUS42 KRAH 281732
TAFFAY
TAF
KFAY 281732Z 2818/2918 20004KT P6SM BKN040
      TEMPO 2818/2820 BKN025
     FM290000 17003KT P6SM SCT040
      TEMPO 2910/2913 2SM BR BKN006
     FM291700 15007KT P6SM BKN050=



000
FTUS42 KRAH 281732
TAFINT
TAF
KINT 281732Z 2818/2918 20004KT P6SM VCSH BKN040
     FM290000 18003KT P6SM SCT040
      TEMPO 2910/2913 3SM BR SCT004
     FM291700 17007KT P6SM BKN050=



000
FTUS42 KRAH 281635 AAB
TAFRWI
TAF AMD
KRWI 281635Z 2817/2912 18006KT P6SM BKN040
      TEMPO 2817/2819 BKN025
     FM290000 18003KT P6SM SCT040 BKN250
     FM290700 17001KT 4SM BR SCT007
      TEMPO 2908/2911 1SM BR BKN007=



000
FTUS42 KRAH 281635 AAB
TAFRWI
TAF AMD
KRWI 281635Z 2817/2912 18006KT P6SM BKN040
      TEMPO 2817/2819 BKN025
     FM290000 18003KT P6SM SCT040 BKN250
     FM290700 17001KT 4SM BR SCT007
      TEMPO 2908/2911 1SM BR BKN007=



000
FTUS42 KRAH 281635 AAB
TAFRWI
TAF AMD
KRWI 281635Z 2817/2912 18006KT P6SM BKN040
      TEMPO 2817/2819 BKN025
     FM290000 18003KT P6SM SCT040 BKN250
     FM290700 17001KT 4SM BR SCT007
      TEMPO 2908/2911 1SM BR BKN007=



000
FTUS42 KRAH 281635 AAB
TAFRWI
TAF AMD
KRWI 281635Z 2817/2912 18006KT P6SM BKN040
      TEMPO 2817/2819 BKN025
     FM290000 18003KT P6SM SCT040 BKN250
     FM290700 17001KT 4SM BR SCT007
      TEMPO 2908/2911 1SM BR BKN007=



000
FTUS42 KRAH 281635 AAB
TAFRDU
TAF AMD
KRDU 281635Z 2817/2912 22005KT P6SM BKN040
      TEMPO 2817/2819 BKN025
     FM290000 18003KT P6SM SCT040 BKN250
     FM291000 22003KT 5SM BR SCT007 SCT250=



000
FTUS42 KRAH 281635 AAB
TAFRDU
TAF AMD
KRDU 281635Z 2817/2912 22005KT P6SM BKN040
      TEMPO 2817/2819 BKN025
     FM290000 18003KT P6SM SCT040 BKN250
     FM291000 22003KT 5SM BR SCT007 SCT250=



000
FTUS42 KRAH 281634 AAB
TAFFAY
TAF AMD
KFAY 281634Z 2817/2912 17005KT P6SM BKN040
      TEMPO 2817/2819 BKN025
     FM290000 18003KT P6SM SCT040 BKN250
     FM291000 22003KT 5SM BR SCT007 SCT250=



000
FTUS42 KRAH 281634 AAB
TAFFAY
TAF AMD
KFAY 281634Z 2817/2912 17005KT P6SM BKN040
      TEMPO 2817/2819 BKN025
     FM290000 18003KT P6SM SCT040 BKN250
     FM291000 22003KT 5SM BR SCT007 SCT250=



000
FTUS42 KRAH 281407 AAA
TAFFAY
TAF AMD
KFAY 281407Z 2814/2912 17005KT P6SM BKN040
      TEMPO 2814/2816 BKN015
     FM290000 18003KT P6SM SCT040 BKN250
     FM291000 22003KT 5SM BR SCT007 SCT250=



000
FTUS42 KRAH 281407 AAA
TAFFAY
TAF AMD
KFAY 281407Z 2814/2912 17005KT P6SM BKN040
      TEMPO 2814/2816 BKN015
     FM290000 18003KT P6SM SCT040 BKN250
     FM291000 22003KT 5SM BR SCT007 SCT250=



000
FTUS42 KRAH 281407 AAA
TAFFAY
TAF AMD
KFAY 281407Z 2814/2912 17005KT P6SM BKN040
      TEMPO 2814/2816 BKN015
     FM290000 18003KT P6SM SCT040 BKN250
     FM291000 22003KT 5SM BR SCT007 SCT250=



000
FTUS42 KRAH 281407 AAA
TAFFAY
TAF AMD
KFAY 281407Z 2814/2912 17005KT P6SM BKN040
      TEMPO 2814/2816 BKN015
     FM290000 18003KT P6SM SCT040 BKN250
     FM291000 22003KT 5SM BR SCT007 SCT250=



000
FTUS42 KRAH 281405 AAA
TAFRDU
TAF AMD
KRDU 281405Z 2814/2912 23005KT P6SM BKN040
      TEMPO 2814/2816 BKN015
     FM290000 18003KT P6SM SCT040 BKN250
     FM291000 22003KT 5SM BR SCT007 SCT250=



000
FTUS42 KRAH 281405 AAA
TAFRDU
TAF AMD
KRDU 281405Z 2814/2912 23005KT P6SM BKN040
      TEMPO 2814/2816 BKN015
     FM290000 18003KT P6SM SCT040 BKN250
     FM291000 22003KT 5SM BR SCT007 SCT250=



000
FTUS42 KRAH 281405 AAA
TAFRDU
TAF AMD
KRDU 281405Z 2814/2912 23005KT P6SM BKN040
      TEMPO 2814/2816 BKN015
     FM290000 18003KT P6SM SCT040 BKN250
     FM291000 22003KT 5SM BR SCT007 SCT250=



000
FTUS42 KRAH 281401 AAA
TAFRWI
TAF AMD
KRWI 281401Z 2814/2912 18006KT P6SM BKN040
      TEMPO 2814/2816 BKN015
     FM290000 18003KT P6SM SCT040 BKN250
     FM290700 17001KT 4SM BR SCT007
      TEMPO 2908/2911 1SM BR BKN007=



000
FTUS42 KRAH 281359 AAA
TAFGSO
TAF AMD
KGSO 281359Z 2814/2912 20004KT P6SM SCT020
     FM281600 18005KT P6SM BKN040
     FM290000 18003KT P6SM SCT040 BKN250
     FM291000 22003KT 5SM BR SCT007 SCT250=



000
FTUS42 KRAH 281359 AAA
TAFGSO
TAF AMD
KGSO 281359Z 2814/2912 20004KT P6SM SCT020
     FM281600 18005KT P6SM BKN040
     FM290000 18003KT P6SM SCT040 BKN250
     FM291000 22003KT 5SM BR SCT007 SCT250=



000
FTUS42 KRAH 281334 AAA
TAFINT
TAF AMD
KINT 281334Z 2814/2912 20004KT P6SM SCT020
     FM281600 18005KT P6SM BKN040
     FM290000 18003KT P6SM SCT040 BKN250
     FM291000 22003KT 5SM BR SCT007 SCT250=



000
FTUS42 KRAH 281334 AAA
TAFINT
TAF AMD
KINT 281334Z 2814/2912 20004KT P6SM SCT020
     FM281600 18005KT P6SM BKN040
     FM290000 18003KT P6SM SCT040 BKN250
     FM291000 22003KT 5SM BR SCT007 SCT250=



000
FTUS42 KRAH 281334 AAA
TAFINT
TAF AMD
KINT 281334Z 2814/2912 20004KT P6SM SCT020
     FM281600 18005KT P6SM BKN040
     FM290000 18003KT P6SM SCT040 BKN250
     FM291000 22003KT 5SM BR SCT007 SCT250=



000
FTUS42 KRAH 281334 AAA
TAFINT
TAF AMD
KINT 281334Z 2814/2912 20004KT P6SM SCT020
     FM281600 18005KT P6SM BKN040
     FM290000 18003KT P6SM SCT040 BKN250
     FM291000 22003KT 5SM BR SCT007 SCT250=



000
FTUS42 KRAH 281132
TAFRWI
TAF
KRWI 281132Z 2812/2912 19005KT P6SM BKN040
      TEMPO 2812/2813 4SM BR BKN005
     FM290000 18003KT P6SM SCT040 BKN250
     FM290700 17001KT 4SM BR SCT007
      TEMPO 2908/2911 1SM BR BKN007=



000
FTUS42 KRAH 281132
TAFINT
TAF
KINT 281132Z 2812/2912 20004KT P6SM SCT005 BKN020
      TEMPO 2812/2813 2SM BR BKN003
     FM281400 18005KT P6SM SCT020 BKN040
     FM290000 18003KT P6SM SCT040 BKN250
     FM291000 22003KT 5SM BR SCT007 SCT250=



000
FTUS42 KRAH 281132
TAFGSO
TAF
KGSO 281132Z 2812/2912 20004KT 5SM BR SCT005 BKN020
      TEMPO 2812/2813 2SM BR BKN004
     FM281500 18005KT P6SM SCT030 BKN040
     FM290000 18003KT P6SM SCT040 BKN250
     FM291000 22003KT 5SM BR SCT007 SCT250=



000
FTUS42 KRAH 281132
TAFFAY
TAF
KFAY 281132Z 2812/2912 19005KT P6SM BKN050
     FM281800 21006KT P6SM FEW030 BKN040
     FM290000 18003KT P6SM SCT040 BKN250
     FM291000 22003KT 5SM BR SCT007 SCT250=



000
FTUS42 KRAH 281132
TAFRDU
TAF
KRDU 281132Z 2812/2912 21005KT P6SM SCT006 BKN025
      TEMPO 2812/2813 3SM BR BKN006
     FM281500 21006KT P6SM FEW030 BKN040
     FM290000 18003KT P6SM SCT040 BKN250
     FM291000 22003KT 5SM BR SCT007 SCT250=



000
FTUS42 KRAH 281132
TAFGSO
TAF
KGSO 281132Z 2812/2912 20004KT 5SM BR SCT005 BKN020
      TEMPO 2812/2813 2SM BR BKN004
     FM281500 18005KT P6SM SCT030 BKN040
     FM290000 18003KT P6SM SCT040 BKN250
     FM291000 22003KT 5SM BR SCT007 SCT250=



000
FTUS42 KRAH 281132
TAFRWI
TAF
KRWI 281132Z 2812/2912 19005KT P6SM BKN040
      TEMPO 2812/2813 4SM BR BKN005
     FM290000 18003KT P6SM SCT040 BKN250
     FM290700 17001KT 4SM BR SCT007
      TEMPO 2908/2911 1SM BR BKN007=



000
FTUS42 KRAH 281132
TAFFAY
TAF
KFAY 281132Z 2812/2912 19005KT P6SM BKN050
     FM281800 21006KT P6SM FEW030 BKN040
     FM290000 18003KT P6SM SCT040 BKN250
     FM291000 22003KT 5SM BR SCT007 SCT250=



000
FTUS42 KRAH 281132
TAFINT
TAF
KINT 281132Z 2812/2912 20004KT P6SM SCT005 BKN020
      TEMPO 2812/2813 2SM BR BKN003
     FM281400 18005KT P6SM SCT020 BKN040
     FM290000 18003KT P6SM SCT040 BKN250
     FM291000 22003KT 5SM BR SCT007 SCT250=



000
FTUS42 KRAH 281132
TAFRDU
TAF
KRDU 281132Z 2812/2912 21005KT P6SM SCT006 BKN025
      TEMPO 2812/2813 3SM BR BKN006
     FM281500 21006KT P6SM FEW030 BKN040
     FM290000 18003KT P6SM SCT040 BKN250
     FM291000 22003KT 5SM BR SCT007 SCT250=



000
FTUS42 KRAH 280957 AAC
TAFGSO
TAF AMD
KGSO 280957Z 2810/2906 20004KT P6SM SCT005 BKN020
      TEMPO 2810/2813 5SM BR BKN003
     FM281600 18005KT P6SM SCT030 BKN040
     FM290000 18003KT P6SM SCT040 BKN250=



000
FTUS42 KRAH 280957 AAC
TAFGSO
TAF AMD
KGSO 280957Z 2810/2906 20004KT P6SM SCT005 BKN020
      TEMPO 2810/2813 5SM BR BKN003
     FM281600 18005KT P6SM SCT030 BKN040
     FM290000 18003KT P6SM SCT040 BKN250=



000
FTUS42 KRAH 280956 AAB
TAFINT
TAF AMD
KINT 280956Z 2810/2906 20004KT P6SM SCT005 BKN020
      TEMPO 2810/2813 5SM BR BKN004
     FM281600 18005KT P6SM SCT030 BKN040
     FM290000 18003KT P6SM SCT040 BKN250=



000
FTUS42 KRAH 280956 AAB
TAFINT
TAF AMD
KINT 280956Z 2810/2906 20004KT P6SM SCT005 BKN020
      TEMPO 2810/2813 5SM BR BKN004
     FM281600 18005KT P6SM SCT030 BKN040
     FM290000 18003KT P6SM SCT040 BKN250=



000
FTUS42 KRAH 280947 AAA
TAFRWI
TAF AMD
KRWI 280947Z 2810/2906 19005KT P6SM FEW050 SCT150 BKN250
      TEMPO 2810/2813 1SM BR BKN010
     FM281500 21006KT P6SM FEW030 BKN040
     FM290000 18003KT P6SM SCT040 BKN250=



000
FTUS42 KRAH 280947 AAA
TAFRWI
TAF AMD
KRWI 280947Z 2810/2906 19005KT P6SM FEW050 SCT150 BKN250
      TEMPO 2810/2813 1SM BR BKN010
     FM281500 21006KT P6SM FEW030 BKN040
     FM290000 18003KT P6SM SCT040 BKN250=



000
FTUS42 KRAH 280849 AAB
TAFRDU
TAF AMD
KRDU 280849Z 2809/2906 21005KT P6SM SCT007 BKN020
      TEMPO 2809/2813 3SM BR BKN007
     FM281500 21006KT P6SM FEW030 BKN040
     FM290000 18003KT P6SM SCT040 BKN250=



000
FTUS42 KRAH 280848 AAB
TAFGSO
TAF AMD
KGSO 280848Z 2809/2906 20004KT P6SM SCT008 BKN020
      TEMPO 2809/2813 5SM BR BKN007
     FM281600 18005KT P6SM SCT030 BKN040
     FM290000 18003KT P6SM SCT040 BKN250=



000
FTUS42 KRAH 280848 AAA
TAFINT
TAF AMD
KINT 280848Z 2809/2906 20004KT P6SM SCT008 BKN020
      TEMPO 2809/2813 5SM BR BKN007
     FM281600 18005KT P6SM SCT030 BKN040
     FM290000 18003KT P6SM SCT040 BKN250=



000
FTUS42 KRAH 280848 AAA
TAFINT
TAF AMD
KINT 280848Z 2809/2906 20004KT P6SM SCT008 BKN020
      TEMPO 2809/2813 5SM BR BKN007
     FM281600 18005KT P6SM SCT030 BKN040
     FM290000 18003KT P6SM SCT040 BKN250=



000
FTUS42 KRAH 280848 AAB
TAFGSO
TAF AMD
KGSO 280848Z 2809/2906 20004KT P6SM SCT008 BKN020
      TEMPO 2809/2813 5SM BR BKN007
     FM281600 18005KT P6SM SCT030 BKN040
     FM290000 18003KT P6SM SCT040 BKN250=



000
FTUS42 KRAH 280749 AAA
TAFRDU
TAF AMD
KRDU 280749Z 2808/2906 19005KT P6SM FEW050 SCT150 BKN250
      TEMPO 2809/2813 3SM BR BKN007
     FM281500 21006KT P6SM FEW030 BKN040
     FM290000 18003KT P6SM SCT040 BKN250=



000
FTUS42 KRAH 280749 AAA
TAFRDU
TAF AMD
KRDU 280749Z 2808/2906 19005KT P6SM FEW050 SCT150 BKN250
      TEMPO 2809/2813 3SM BR BKN007
     FM281500 21006KT P6SM FEW030 BKN040
     FM290000 18003KT P6SM SCT040 BKN250=



000
FTUS42 KRAH 280749 AAA
TAFGSO
TAF AMD
KGSO 280749Z 2808/2906 20004KT P6SM FEW050 BKN250
      TEMPO 2808/2812 5SM BR BKN007
     FM281600 18005KT P6SM SCT030 BKN040
     FM290000 18003KT P6SM SCT040 BKN250=



000
FTUS42 KRAH 280749 AAA
TAFGSO
TAF AMD
KGSO 280749Z 2808/2906 20004KT P6SM FEW050 BKN250
      TEMPO 2808/2812 5SM BR BKN007
     FM281600 18005KT P6SM SCT030 BKN040
     FM290000 18003KT P6SM SCT040 BKN250=



000
FTUS42 KRAH 280522
TAFGSO
TAF
KGSO 280522Z 2806/2906 20004KT P6SM FEW050 BKN250
      TEMPO 2810/2813 5SM BR SCT010
     FM281600 18005KT P6SM SCT030 BKN040
     FM290000 18003KT P6SM SCT040 BKN250=



000
FTUS42 KRAH 280522
TAFINT
TAF
KINT 280522Z 2806/2906 20004KT P6SM FEW050 BKN250
      TEMPO 2810/2813 5SM BR SCT010
     FM281600 18005KT P6SM SCT030 BKN040
     FM290000 18003KT P6SM SCT040 BKN250=



000
FTUS42 KRAH 280522
TAFGSO
TAF
KGSO 280522Z 2806/2906 20004KT P6SM FEW050 BKN250
      TEMPO 2810/2813 5SM BR SCT010
     FM281600 18005KT P6SM SCT030 BKN040
     FM290000 18003KT P6SM SCT040 BKN250=



000
FTUS42 KRAH 280522
TAFFAY
TAF
KFAY 280522Z 2806/2906 19005KT P6SM FEW050 SCT150 BKN250
      TEMPO 2809/2813 3SM BR BKN010
     FM281500 21006KT P6SM FEW030 BKN040
     FM290000 18003KT P6SM SCT040 BKN250=



000
FTUS42 KRAH 280522
TAFRWI
TAF
KRWI 280522Z 2806/2906 19005KT P6SM FEW050 SCT150 BKN250
      TEMPO 2809/2813 3SM BR BKN010
     FM281500 21006KT P6SM FEW030 BKN040
     FM290000 18003KT P6SM SCT040 BKN250=



000
FTUS42 KRAH 280522
TAFRDU
TAF
KRDU 280522Z 2806/2906 19005KT P6SM FEW050 SCT150 BKN250
      TEMPO 2809/2813 3SM BR SCT010
     FM281500 21006KT P6SM FEW030 BKN040
     FM290000 18003KT P6SM SCT040 BKN250=



000
FTUS42 KRAH 280522
TAFFAY
TAF
KFAY 280522Z 2806/2906 19005KT P6SM FEW050 SCT150 BKN250
      TEMPO 2809/2813 3SM BR BKN010
     FM281500 21006KT P6SM FEW030 BKN040
     FM290000 18003KT P6SM SCT040 BKN250=



000
FTUS42 KRAH 280522
TAFINT
TAF
KINT 280522Z 2806/2906 20004KT P6SM FEW050 BKN250
      TEMPO 2810/2813 5SM BR SCT010
     FM281600 18005KT P6SM SCT030 BKN040
     FM290000 18003KT P6SM SCT040 BKN250=



000
FTUS42 KRAH 280522
TAFGSO
TAF
KGSO 280522Z 2806/2906 20004KT P6SM FEW050 BKN250
      TEMPO 2810/2813 5SM BR SCT010
     FM281600 18005KT P6SM SCT030 BKN040
     FM290000 18003KT P6SM SCT040 BKN250=



000
FTUS42 KRAH 280522
TAFRWI
TAF
KRWI 280522Z 2806/2906 19005KT P6SM FEW050 SCT150 BKN250
      TEMPO 2809/2813 3SM BR BKN010
     FM281500 21006KT P6SM FEW030 BKN040
     FM290000 18003KT P6SM SCT040 BKN250=



000
FTUS42 KRAH 280522
TAFGSO
TAF
KGSO 280522Z 2806/2906 20004KT P6SM FEW050 BKN250
      TEMPO 2810/2813 5SM BR SCT010
     FM281600 18005KT P6SM SCT030 BKN040
     FM290000 18003KT P6SM SCT040 BKN250=



000
FTUS42 KRAH 280522
TAFINT
TAF
KINT 280522Z 2806/2906 20004KT P6SM FEW050 BKN250
      TEMPO 2810/2813 5SM BR SCT010
     FM281600 18005KT P6SM SCT030 BKN040
     FM290000 18003KT P6SM SCT040 BKN250=



000
FTUS42 KRAH 280522
TAFINT
TAF
KINT 280522Z 2806/2906 20004KT P6SM FEW050 BKN250
      TEMPO 2810/2813 5SM BR SCT010
     FM281600 18005KT P6SM SCT030 BKN040
     FM290000 18003KT P6SM SCT040 BKN250=



000
FTUS42 KRAH 280522
TAFRDU
TAF
KRDU 280522Z 2806/2906 19005KT P6SM FEW050 SCT150 BKN250
      TEMPO 2809/2813 3SM BR SCT010
     FM281500 21006KT P6SM FEW030 BKN040
     FM290000 18003KT P6SM SCT040 BKN250=



000
FTUS42 KRAH 280202 AAC
TAFRDU
TAF AMD
KRDU 280202Z 2802/2824 19005KT P6SM FEW050 SCT150 BKN250
      TEMPO 2808/2812 5SM BR
     FM281200 22006KT P6SM SCT010 BKN020
     FM281500 21006KT P6SM FEW030 BKN040 PROB30 2818/2824 VRB10G25KT
      2SM TSRA BKN025CB=



000
FTUS42 KRAH 280202 AAC
TAFRDU
TAF AMD
KRDU 280202Z 2802/2824 19005KT P6SM FEW050 SCT150 BKN250
      TEMPO 2808/2812 5SM BR
     FM281200 22006KT P6SM SCT010 BKN020
     FM281500 21006KT P6SM FEW030 BKN040 PROB30 2818/2824 VRB10G25KT
      2SM TSRA BKN025CB=



000
FTUS42 KRAH 280202 AAC
TAFRDU
TAF AMD
KRDU 280202Z 2802/2824 19005KT P6SM FEW050 SCT150 BKN250
      TEMPO 2808/2812 5SM BR
     FM281200 22006KT P6SM SCT010 BKN020
     FM281500 21006KT P6SM FEW030 BKN040 PROB30 2818/2824 VRB10G25KT
      2SM TSRA BKN025CB=



000
FTUS42 KRAH 280202 AAC
TAFRDU
TAF AMD
KRDU 280202Z 2802/2824 19005KT P6SM FEW050 SCT150 BKN250
      TEMPO 2808/2812 5SM BR
     FM281200 22006KT P6SM SCT010 BKN020
     FM281500 21006KT P6SM FEW030 BKN040 PROB30 2818/2824 VRB10G25KT
      2SM TSRA BKN025CB=



000
FTUS42 KRAH 280201 AAA
TAFGSO
TAF AMD
KGSO 280201Z 2802/2824 19008KT P6SM FEW040 SCT100 BKN250
     FM281200 21004KT P6SM SCT010 BKN020
     FM281600 26006KT P6SM SCT030 BKN040 PROB30 2818/2824 VRB10G25KT
      2SM TSRA BKN025CB=



000
FTUS42 KRAH 280201 AAA
TAFGSO
TAF AMD
KGSO 280201Z 2802/2824 19008KT P6SM FEW040 SCT100 BKN250
     FM281200 21004KT P6SM SCT010 BKN020
     FM281600 26006KT P6SM SCT030 BKN040 PROB30 2818/2824 VRB10G25KT
      2SM TSRA BKN025CB=



000
FTUS42 KRAH 280201 AAA
TAFGSO
TAF AMD
KGSO 280201Z 2802/2824 19008KT P6SM FEW040 SCT100 BKN250
     FM281200 21004KT P6SM SCT010 BKN020
     FM281600 26006KT P6SM SCT030 BKN040 PROB30 2818/2824 VRB10G25KT
      2SM TSRA BKN025CB=



000
FTUS42 KRAH 280007 AAB
TAFRDU
TAF AMD
KRDU 280007Z 2800/2824 VRB04KT P6SM SCT050 BKN100
      TEMPO 2800/2801 5SM -SHRA BKN030
     FM280100 19005KT P6SM FEW050 SCT100 BKN250
      TEMPO 2808/2812 5SM BR
     FM281200 22006KT P6SM SCT010 BKN020
     FM281500 21006KT P6SM FEW030 BKN040 PROB30 2818/2824 VRB10G25KT
      2SM TSRA BKN025CB=



000
FTUS42 KRAH 280007 AAB
TAFRDU
TAF AMD
KRDU 280007Z 2800/2824 VRB04KT P6SM SCT050 BKN100
      TEMPO 2800/2801 5SM -SHRA BKN030
     FM280100 19005KT P6SM FEW050 SCT100 BKN250
      TEMPO 2808/2812 5SM BR
     FM281200 22006KT P6SM SCT010 BKN020
     FM281500 21006KT P6SM FEW030 BKN040 PROB30 2818/2824 VRB10G25KT
      2SM TSRA BKN025CB=



000
FTUS42 KRAH 280003 AAA
TAFRDU
TAF AMD
KRDU 280003Z 2800/2824 19005KT P6SM FEW050 SCT100 BKN250
      TEMPO 2808/2812 5SM BR
     FM281200 22006KT P6SM SCT010 BKN020
     FM281500 21006KT P6SM FEW030 BKN040 PROB30 2818/2824 VRB10G25KT
      2SM TSRA BKN025CB=



000
FTUS42 KRAH 280003 AAA
TAFRDU
TAF AMD
KRDU 280003Z 2800/2824 19005KT P6SM FEW050 SCT100 BKN250
      TEMPO 2808/2812 5SM BR
     FM281200 22006KT P6SM SCT010 BKN020
     FM281500 21006KT P6SM FEW030 BKN040 PROB30 2818/2824 VRB10G25KT
      2SM TSRA BKN025CB=



000
FTUS42 KRAH 272336
TAFFAY
TAF
KFAY 272336Z 2800/2824 19010KT P6SM VCSH SCT060 BKN250
     FM280100 20006KT P6SM FEW060 BKN250
     FM281200 21004KT P6SM SCT010 BKN020
     FM281500 21006KT P6SM SCT030 BKN040 PROB30 2818/2824 VRB10G25KT
      2SM TSRA BKN025CB=



000
FTUS42 KRAH 272336
TAFRDU
TAF
KRDU 272336Z 2800/2824 VRB06KT P6SM VCTS FEW025 BKN040CB BKN250
      TEMPO 2800/2801 VRB10G25KT 5SM -SHRA BKN030
     FM280100 19005KT P6SM FEW060 BKN250
     FM281200 22006KT P6SM SCT010 BKN020
     FM281500 21006KT P6SM FEW030 BKN040 PROB30 2818/2824 VRB10G25KT
      2SM TSRA BKN025CB=



000
FTUS42 KRAH 272336
TAFINT
TAF
KINT 272336Z 2800/2824 22006KT P6SM FEW050 BKN250
     FM281200 21003KT P6SM SCT010 BKN020
     FM281600 26005KT P6SM SCT030 BKN040 PROB30 2818/2824 VRB10G25KT
      2SM TSRA BKN025CB=



000
FTUS42 KRAH 272336
TAFGSO
TAF
KGSO 272336Z 2800/2824 22006KT P6SM FEW050 BKN250
     FM281200 21003KT P6SM SCT010 BKN020
     FM281600 26005KT P6SM SCT030 BKN040 PROB30 2818/2824 VRB10G25KT
      2SM TSRA BKN025CB=



000
FTUS42 KRAH 272336
TAFRDU
TAF
KRDU 272336Z 2800/2824 VRB06KT P6SM VCTS FEW025 BKN040CB BKN250
      TEMPO 2800/2801 VRB10G25KT 5SM -SHRA BKN030
     FM280100 19005KT P6SM FEW060 BKN250
     FM281200 22006KT P6SM SCT010 BKN020
     FM281500 21006KT P6SM FEW030 BKN040 PROB30 2818/2824 VRB10G25KT
      2SM TSRA BKN025CB=



000
FTUS42 KRAH 272336
TAFGSO
TAF
KGSO 272336Z 2800/2824 22006KT P6SM FEW050 BKN250
     FM281200 21003KT P6SM SCT010 BKN020
     FM281600 26005KT P6SM SCT030 BKN040 PROB30 2818/2824 VRB10G25KT
      2SM TSRA BKN025CB=



000
FTUS42 KRAH 272336
TAFINT
TAF
KINT 272336Z 2800/2824 22006KT P6SM FEW050 BKN250
     FM281200 21003KT P6SM SCT010 BKN020
     FM281600 26005KT P6SM SCT030 BKN040 PROB30 2818/2824 VRB10G25KT
      2SM TSRA BKN025CB=



000
FTUS42 KRAH 272336
TAFRWI
TAF
KRWI 272336Z 2800/2824 20010KT P6SM VCTS FEW015 BKN040CB BKN250
      TEMPO 2800/2801 5SM -TSRA BKN020CB
     FM280100 20004KT P6SM FEW050 BKN250
      TEMPO 2807/2811 3SM BR
     FM281200 20005KT P6SM SCT010 BKN020
     FM281500 20005KT P6SM SCT030 BKN040 PROB30 2818/2824 VRB10G25KT
      2SM TSRA BKN025CB=



000
FTUS42 KRAH 272336
TAFRWI
TAF
KRWI 272336Z 2800/2824 20010KT P6SM VCTS FEW015 BKN040CB BKN250
      TEMPO 2800/2801 5SM -TSRA BKN020CB
     FM280100 20004KT P6SM FEW050 BKN250
      TEMPO 2807/2811 3SM BR
     FM281200 20005KT P6SM SCT010 BKN020
     FM281500 20005KT P6SM SCT030 BKN040 PROB30 2818/2824 VRB10G25KT
      2SM TSRA BKN025CB=



000
FTUS42 KRAH 272336
TAFFAY
TAF
KFAY 272336Z 2800/2824 19010KT P6SM VCSH SCT060 BKN250
     FM280100 20006KT P6SM FEW060 BKN250
     FM281200 21004KT P6SM SCT010 BKN020
     FM281500 21006KT P6SM SCT030 BKN040 PROB30 2818/2824 VRB10G25KT
      2SM TSRA BKN025CB=



000
FTUS42 KRAH 272336
TAFRWI
TAF
KRWI 272336Z 2800/2824 20010KT P6SM VCTS FEW015 BKN040CB BKN250
      TEMPO 2800/2801 5SM -TSRA BKN020CB
     FM280100 20004KT P6SM FEW050 BKN250
      TEMPO 2807/2811 3SM BR
     FM281200 20005KT P6SM SCT010 BKN020
     FM281500 20005KT P6SM SCT030 BKN040 PROB30 2818/2824 VRB10G25KT
      2SM TSRA BKN025CB=



000
FTUS42 KRAH 272336
TAFGSO
TAF
KGSO 272336Z 2800/2824 22006KT P6SM FEW050 BKN250
     FM281200 21003KT P6SM SCT010 BKN020
     FM281600 26005KT P6SM SCT030 BKN040 PROB30 2818/2824 VRB10G25KT
      2SM TSRA BKN025CB=



000
FTUS42 KRAH 272336
TAFFAY
TAF
KFAY 272336Z 2800/2824 19010KT P6SM VCSH SCT060 BKN250
     FM280100 20006KT P6SM FEW060 BKN250
     FM281200 21004KT P6SM SCT010 BKN020
     FM281500 21006KT P6SM SCT030 BKN040 PROB30 2818/2824 VRB10G25KT
      2SM TSRA BKN025CB=



000
FTUS42 KRAH 272336
TAFINT
TAF
KINT 272336Z 2800/2824 22006KT P6SM FEW050 BKN250
     FM281200 21003KT P6SM SCT010 BKN020
     FM281600 26005KT P6SM SCT030 BKN040 PROB30 2818/2824 VRB10G25KT
      2SM TSRA BKN025CB=



000
FTUS42 KRAH 272336
TAFGSO
TAF
KGSO 272336Z 2800/2824 22006KT P6SM FEW050 BKN250
     FM281200 21003KT P6SM SCT010 BKN020
     FM281600 26005KT P6SM SCT030 BKN040 PROB30 2818/2824 VRB10G25KT
      2SM TSRA BKN025CB=



000
FTUS42 KRAH 272336
TAFFAY
TAF
KFAY 272336Z 2800/2824 19010KT P6SM VCSH SCT060 BKN250
     FM280100 20006KT P6SM FEW060 BKN250
     FM281200 21004KT P6SM SCT010 BKN020
     FM281500 21006KT P6SM SCT030 BKN040 PROB30 2818/2824 VRB10G25KT
      2SM TSRA BKN025CB=



000
FTUS42 KRAH 272336
TAFINT
TAF
KINT 272336Z 2800/2824 22006KT P6SM FEW050 BKN250
     FM281200 21003KT P6SM SCT010 BKN020
     FM281600 26005KT P6SM SCT030 BKN040 PROB30 2818/2824 VRB10G25KT
      2SM TSRA BKN025CB=



000
FTUS42 KRAH 272336
TAFRDU
TAF
KRDU 272336Z 2800/2824 VRB06KT P6SM VCTS FEW025 BKN040CB BKN250
      TEMPO 2800/2801 VRB10G25KT 5SM -SHRA BKN030
     FM280100 19005KT P6SM FEW060 BKN250
     FM281200 22006KT P6SM SCT010 BKN020
     FM281500 21006KT P6SM FEW030 BKN040 PROB30 2818/2824 VRB10G25KT
      2SM TSRA BKN025CB=



000
FTUS42 KRAH 272336
TAFRDU
TAF
KRDU 272336Z 2800/2824 VRB06KT P6SM VCTS FEW025 BKN040CB BKN250
      TEMPO 2800/2801 VRB10G25KT 5SM -SHRA BKN030
     FM280100 19005KT P6SM FEW060 BKN250
     FM281200 22006KT P6SM SCT010 BKN020
     FM281500 21006KT P6SM FEW030 BKN040 PROB30 2818/2824 VRB10G25KT
      2SM TSRA BKN025CB=



000
FTUS42 KRAH 272336
TAFRWI
TAF
KRWI 272336Z 2800/2824 20010KT P6SM VCTS FEW015 BKN040CB BKN250
      TEMPO 2800/2801 5SM -TSRA BKN020CB
     FM280100 20004KT P6SM FEW050 BKN250
      TEMPO 2807/2811 3SM BR
     FM281200 20005KT P6SM SCT010 BKN020
     FM281500 20005KT P6SM SCT030 BKN040 PROB30 2818/2824 VRB10G25KT
      2SM TSRA BKN025CB=



000
FTUS42 KRAH 272220 AAB
TAFRDU
TAF AMD
KRDU 272220Z 2722/2818 20009KT P6SM VCTS BKN040CB BKN250
      TEMPO 2722/2724 VRB10G25KT 2SM TSRA BKN020CB
     FM280000 19005KT P6SM SCT050 BKN200
     FM281000 21003KT P6SM SCT007 BKN010
      TEMPO 2810/2812 4SM BR BKN007
     FM281500 23005KT P6SM SCT015 BKN040=



000
FTUS42 KRAH 272220 AAB
TAFRDU
TAF AMD
KRDU 272220Z 2722/2818 20009KT P6SM VCTS BKN040CB BKN250
      TEMPO 2722/2724 VRB10G25KT 2SM TSRA BKN020CB
     FM280000 19005KT P6SM SCT050 BKN200
     FM281000 21003KT P6SM SCT007 BKN010
      TEMPO 2810/2812 4SM BR BKN007
     FM281500 23005KT P6SM SCT015 BKN040=



000
FTUS42 KRAH 272220 AAB
TAFRWI
TAF AMD
KRWI 272220Z 2722/2818 15008KT P6SM VCTS BKN050CB BKN250
      TEMPO 2722/2724 VRB10G25KT 2SM TSRA BKN020CB
     FM280100 20003KT P6SM BKN100
     FM281000 21003KT P6SM SCT007 BKN010
      TEMPO 2810/2812 4SM BR BKN007
     FM281500 22005KT P6SM SCT015 BKN040=



000
FTUS42 KRAH 272220 AAB
TAFRWI
TAF AMD
KRWI 272220Z 2722/2818 15008KT P6SM VCTS BKN050CB BKN250
      TEMPO 2722/2724 VRB10G25KT 2SM TSRA BKN020CB
     FM280100 20003KT P6SM BKN100
     FM281000 21003KT P6SM SCT007 BKN010
      TEMPO 2810/2812 4SM BR BKN007
     FM281500 22005KT P6SM SCT015 BKN040=



000
FTUS42 KRAH 272216 AAB
TAFFAY
TAF AMD
KFAY 272216Z 2722/2818 18011KT P6SM VCSH SCT050 BKN250
      TEMPO 2722/2724 5SM -SHRA BKN030
     FM280100 20005KT P6SM BKN100
     FM281000 21003KT P6SM SCT007 BKN010
     FM281500 26005KT P6SM SCT015 BKN040=



000
FTUS42 KRAH 272216 AAB
TAFFAY
TAF AMD
KFAY 272216Z 2722/2818 18011KT P6SM VCSH SCT050 BKN250
      TEMPO 2722/2724 5SM -SHRA BKN030
     FM280100 20005KT P6SM BKN100
     FM281000 21003KT P6SM SCT007 BKN010
     FM281500 26005KT P6SM SCT015 BKN040=



000
FTUS42 KRAH 272216 AAB
TAFFAY
TAF AMD
KFAY 272216Z 2722/2818 18011KT P6SM VCSH SCT050 BKN250
      TEMPO 2722/2724 5SM -SHRA BKN030
     FM280100 20005KT P6SM BKN100
     FM281000 21003KT P6SM SCT007 BKN010
     FM281500 26005KT P6SM SCT015 BKN040=



000
FTUS42 KRAH 272216 AAB
TAFFAY
TAF AMD
KFAY 272216Z 2722/2818 18011KT P6SM VCSH SCT050 BKN250
      TEMPO 2722/2724 5SM -SHRA BKN030
     FM280100 20005KT P6SM BKN100
     FM281000 21003KT P6SM SCT007 BKN010
     FM281500 26005KT P6SM SCT015 BKN040=



000
FTUS42 KRAH 272129 AAA
TAFRWI
TAF AMD
KRWI 272129Z 2721/2818 20008KT P6SM VCSH BKN050 BKN250
      TEMPO 2721/2723 VRB10G25KT 2SM TSRA BKN020CB
     FM280100 20003KT P6SM BKN100
     FM281000 21003KT P6SM SCT007 BKN010
      TEMPO 2810/2812 4SM BR BKN007
     FM281500 22005KT P6SM SCT015 BKN040=



000
FTUS42 KRAH 272129 AAA
TAFRWI
TAF AMD
KRWI 272129Z 2721/2818 20008KT P6SM VCSH BKN050 BKN250
      TEMPO 2721/2723 VRB10G25KT 2SM TSRA BKN020CB
     FM280100 20003KT P6SM BKN100
     FM281000 21003KT P6SM SCT007 BKN010
      TEMPO 2810/2812 4SM BR BKN007
     FM281500 22005KT P6SM SCT015 BKN040=



000
FTUS42 KRAH 272129 AAA
TAFRWI
TAF AMD
KRWI 272129Z 2721/2818 20008KT P6SM VCSH BKN050 BKN250
      TEMPO 2721/2723 VRB10G25KT 2SM TSRA BKN020CB
     FM280100 20003KT P6SM BKN100
     FM281000 21003KT P6SM SCT007 BKN010
      TEMPO 2810/2812 4SM BR BKN007
     FM281500 22005KT P6SM SCT015 BKN040=



000
FTUS42 KRAH 272129 AAA
TAFRWI
TAF AMD
KRWI 272129Z 2721/2818 20008KT P6SM VCSH BKN050 BKN250
      TEMPO 2721/2723 VRB10G25KT 2SM TSRA BKN020CB
     FM280100 20003KT P6SM BKN100
     FM281000 21003KT P6SM SCT007 BKN010
      TEMPO 2810/2812 4SM BR BKN007
     FM281500 22005KT P6SM SCT015 BKN040=



000
FTUS42 KRAH 272126 AAA
TAFRDU
TAF AMD
KRDU 272126Z 2721/2818 20009KT P6SM VCTS BKN040CB BKN250
      TEMPO 2721/2723 VRB10G25KT 2SM TSRA BKN020CB
     FM280000 19005KT P6SM SCT050 BKN200
     FM281000 21003KT P6SM SCT007 BKN010
      TEMPO 2810/2812 4SM BR BKN007
     FM281500 23005KT P6SM SCT015 BKN040=



000
FTUS42 KRAH 272126 AAA
TAFRDU
TAF AMD
KRDU 272126Z 2721/2818 20009KT P6SM VCTS BKN040CB BKN250
      TEMPO 2721/2723 VRB10G25KT 2SM TSRA BKN020CB
     FM280000 19005KT P6SM SCT050 BKN200
     FM281000 21003KT P6SM SCT007 BKN010
      TEMPO 2810/2812 4SM BR BKN007
     FM281500 23005KT P6SM SCT015 BKN040=



000
FTUS42 KRAH 271856 AAA
TAFFAY
TAF AMD
KFAY 271856Z 2719/2818 23010KT P6SM VCSH BKN050 BKN250
      TEMPO 2719/2723 5SM -TSRA BKN050CB
     FM280100 20005KT P6SM BKN100
     FM281000 21003KT P6SM SCT007 BKN010
     FM281500 26005KT P6SM SCT015 BKN040=



000
FTUS42 KRAH 271856 AAA
TAFFAY
TAF AMD
KFAY 271856Z 2719/2818 23010KT P6SM VCSH BKN050 BKN250
      TEMPO 2719/2723 5SM -TSRA BKN050CB
     FM280100 20005KT P6SM BKN100
     FM281000 21003KT P6SM SCT007 BKN010
     FM281500 26005KT P6SM SCT015 BKN040=



000
FTUS42 KRAH 271856 AAA
TAFFAY
TAF AMD
KFAY 271856Z 2719/2818 23010KT P6SM VCSH BKN050 BKN250
      TEMPO 2719/2723 5SM -TSRA BKN050CB
     FM280100 20005KT P6SM BKN100
     FM281000 21003KT P6SM SCT007 BKN010
     FM281500 26005KT P6SM SCT015 BKN040=



000
FTUS42 KRAH 271856 AAA
TAFFAY
TAF AMD
KFAY 271856Z 2719/2818 23010KT P6SM VCSH BKN050 BKN250
      TEMPO 2719/2723 5SM -TSRA BKN050CB
     FM280100 20005KT P6SM BKN100
     FM281000 21003KT P6SM SCT007 BKN010
     FM281500 26005KT P6SM SCT015 BKN040=



000
FTUS42 KRAH 271726
TAFGSO
TAF
KGSO 271726Z 2718/2818 22008KT P6SM VCSH BKN040 BKN250
     FM280100 21005KT P6SM SCT050 BKN250
     FM280900 21003KT P6SM SCT007 BKN010
      TEMPO 2809/2812 4SM BR BKN007
     FM281500 26005KT P6SM SCT015 BKN040=



000
FTUS42 KRAH 271726
TAFINT
TAF
KINT 271726Z 2718/2818 22008KT P6SM VCSH BKN040 BKN250
     FM280100 21005KT P6SM SCT050 BKN250
     FM280900 21003KT P6SM SCT007 BKN010
      TEMPO 2809/2812 4SM BR BKN007
     FM281500 26005KT P6SM SCT015 BKN040=



000
FTUS42 KRAH 271726
TAFRDU
TAF
KRDU 271726Z 2718/2818 22009KT P6SM VCSH BKN050 BKN250
      TEMPO 2720/2724 5SM -TSRA BKN050CB
     FM280000 19005KT P6SM SCT050 BKN200
     FM281000 21003KT P6SM SCT007 BKN010
      TEMPO 2810/2812 4SM BR BKN007
     FM281500 23005KT P6SM SCT015 BKN040=



000
FTUS42 KRAH 271726
TAFFAY
TAF
KFAY 271726Z 2718/2818 23010KT P6SM VCSH BKN050 BKN250
      TEMPO 2718/2722 5SM -TSRA BKN050CB
     FM280100 20005KT P6SM BKN100
     FM281000 21003KT P6SM SCT007 BKN010
     FM281500 26005KT P6SM SCT015 BKN040=



000
FTUS42 KRAH 271726
TAFRWI
TAF
KRWI 271726Z 2718/2818 20008KT P6SM VCSH BKN050 BKN250
      TEMPO 2720/2724 5SM -TSRA BKN050CB
     FM280100 20003KT P6SM BKN100
     FM281000 21003KT P6SM SCT007 BKN010
      TEMPO 2810/2812 4SM BR BKN007
     FM281500 22005KT P6SM SCT015 BKN040=



000
FTUS42 KRAH 271726
TAFINT
TAF
KINT 271726Z 2718/2818 22008KT P6SM VCSH BKN040 BKN250
     FM280100 21005KT P6SM SCT050 BKN250
     FM280900 21003KT P6SM SCT007 BKN010
      TEMPO 2809/2812 4SM BR BKN007
     FM281500 26005KT P6SM SCT015 BKN040=



000
FTUS42 KRAH 271726
TAFGSO
TAF
KGSO 271726Z 2718/2818 22008KT P6SM VCSH BKN040 BKN250
     FM280100 21005KT P6SM SCT050 BKN250
     FM280900 21003KT P6SM SCT007 BKN010
      TEMPO 2809/2812 4SM BR BKN007
     FM281500 26005KT P6SM SCT015 BKN040=



000
FTUS42 KRAH 271726
TAFRDU
TAF
KRDU 271726Z 2718/2818 22009KT P6SM VCSH BKN050 BKN250
      TEMPO 2720/2724 5SM -TSRA BKN050CB
     FM280000 19005KT P6SM SCT050 BKN200
     FM281000 21003KT P6SM SCT007 BKN010
      TEMPO 2810/2812 4SM BR BKN007
     FM281500 23005KT P6SM SCT015 BKN040=



000
FTUS42 KRAH 271726
TAFRWI
TAF
KRWI 271726Z 2718/2818 20008KT P6SM VCSH BKN050 BKN250
      TEMPO 2720/2724 5SM -TSRA BKN050CB
     FM280100 20003KT P6SM BKN100
     FM281000 21003KT P6SM SCT007 BKN010
      TEMPO 2810/2812 4SM BR BKN007
     FM281500 22005KT P6SM SCT015 BKN040=



000
FTUS42 KRAH 271726
TAFFAY
TAF
KFAY 271726Z 2718/2818 23010KT P6SM VCSH BKN050 BKN250
      TEMPO 2718/2722 5SM -TSRA BKN050CB
     FM280100 20005KT P6SM BKN100
     FM281000 21003KT P6SM SCT007 BKN010
     FM281500 26005KT P6SM SCT015 BKN040=



000
FTUS42 KRAH 271726
TAFGSO
TAF
KGSO 271726Z 2718/2818 22008KT P6SM VCSH BKN040 BKN250
     FM280100 21005KT P6SM SCT050 BKN250
     FM280900 21003KT P6SM SCT007 BKN010
      TEMPO 2809/2812 4SM BR BKN007
     FM281500 26005KT P6SM SCT015 BKN040=



000
FTUS42 KRAH 271726
TAFINT
TAF
KINT 271726Z 2718/2818 22008KT P6SM VCSH BKN040 BKN250
     FM280100 21005KT P6SM SCT050 BKN250
     FM280900 21003KT P6SM SCT007 BKN010
      TEMPO 2809/2812 4SM BR BKN007
     FM281500 26005KT P6SM SCT015 BKN040=



000
FTUS42 KRAH 271726
TAFGSO
TAF
KGSO 271726Z 2718/2818 22008KT P6SM VCSH BKN040 BKN250
     FM280100 21005KT P6SM SCT050 BKN250
     FM280900 21003KT P6SM SCT007 BKN010
      TEMPO 2809/2812 4SM BR BKN007
     FM281500 26005KT P6SM SCT015 BKN040=



000
FTUS42 KRAH 271726
TAFRDU
TAF
KRDU 271726Z 2718/2818 22009KT P6SM VCSH BKN050 BKN250
      TEMPO 2720/2724 5SM -TSRA BKN050CB
     FM280000 19005KT P6SM SCT050 BKN200
     FM281000 21003KT P6SM SCT007 BKN010
      TEMPO 2810/2812 4SM BR BKN007
     FM281500 23005KT P6SM SCT015 BKN040=



000
FTUS42 KRAH 271558 AAB
TAFRDU
TAF AMD
KRDU 271558Z 2716/2812 17005KT P6SM VCSH SCT018 BKN250
     FM271800 22009KT P6SM BKN050
     FM280000 19005KT P6SM SCT050 BKN200
     FM281000 21003KT P6SM SCT007 BKN010
      TEMPO 2810/2812 4SM BR BKN007=



000
FTUS42 KRAH 271558 AAB
TAFRDU
TAF AMD
KRDU 271558Z 2716/2812 17005KT P6SM VCSH SCT018 BKN250
     FM271800 22009KT P6SM BKN050
     FM280000 19005KT P6SM SCT050 BKN200
     FM281000 21003KT P6SM SCT007 BKN010
      TEMPO 2810/2812 4SM BR BKN007=



000
FTUS42 KRAH 271557 AAB
TAFFAY
TAF AMD
KFAY 271557Z 2716/2812 23010KT P6SM VCSH SCT025 BKN050
     FM271800 20008KT P6SM BKN050
     FM281000 21003KT P6SM SCT007 BKN010
      TEMPO 2810/2812 4SM BR BKN007=



000
FTUS42 KRAH 271557 AAB
TAFFAY
TAF AMD
KFAY 271557Z 2716/2812 23010KT P6SM VCSH SCT025 BKN050
     FM271800 20008KT P6SM BKN050
     FM281000 21003KT P6SM SCT007 BKN010
      TEMPO 2810/2812 4SM BR BKN007=



000
FTUS42 KRAH 271556 AAB
TAFGSO
TAF AMD
KGSO 271556Z 2716/2812 19004KT P6SM VCSH SCT025 BKN100
     FM271800 22008KT P6SM BKN040 BKN250
     FM280100 21005KT P6SM SCT050 BKN250
     FM281000 22003KT P6SM SCT007 BKN010
      TEMPO 2810/2812 4SM BR BKN007=



000
FTUS42 KRAH 271556 AAB
TAFGSO
TAF AMD
KGSO 271556Z 2716/2812 19004KT P6SM VCSH SCT025 BKN100
     FM271800 22008KT P6SM BKN040 BKN250
     FM280100 21005KT P6SM SCT050 BKN250
     FM281000 22003KT P6SM SCT007 BKN010
      TEMPO 2810/2812 4SM BR BKN007=



000
FTUS42 KRAH 271555 AAB
TAFINT
TAF AMD
KINT 271555Z 2716/2812 19004KT P6SM VCSH SCT018 BKN100
     FM271800 22008KT P6SM BKN040 BKN250
     FM280100 21005KT P6SM SCT050 BKN250
     FM281000 21003KT P6SM SCT007 BKN010
      TEMPO 2810/2812 4SM BR BKN007=



000
FTUS42 KRAH 271520 AAA
TAFFAY
TAF AMD
KFAY 271520Z 2715/2812 17004KT P6SM VCSH SCT025 BKN050
      TEMPO 2715/2718 BKN025
     FM271800 20008KT P6SM BKN050
     FM281000 21003KT P6SM SCT007 BKN010
      TEMPO 2810/2812 4SM BR BKN007=



000
FTUS42 KRAH 271520 AAA
TAFFAY
TAF AMD
KFAY 271520Z 2715/2812 17004KT P6SM VCSH SCT025 BKN050
      TEMPO 2715/2718 BKN025
     FM271800 20008KT P6SM BKN050
     FM281000 21003KT P6SM SCT007 BKN010
      TEMPO 2810/2812 4SM BR BKN007=



000
FTUS42 KRAH 271520 AAA
TAFFAY
TAF AMD
KFAY 271520Z 2715/2812 17004KT P6SM VCSH SCT025 BKN050
      TEMPO 2715/2718 BKN025
     FM271800 20008KT P6SM BKN050
     FM281000 21003KT P6SM SCT007 BKN010
      TEMPO 2810/2812 4SM BR BKN007=



000
FTUS42 KRAH 271520 AAA
TAFFAY
TAF AMD
KFAY 271520Z 2715/2812 17004KT P6SM VCSH SCT025 BKN050
      TEMPO 2715/2718 BKN025
     FM271800 20008KT P6SM BKN050
     FM281000 21003KT P6SM SCT007 BKN010
      TEMPO 2810/2812 4SM BR BKN007=



000
FTUS42 KRAH 271519 AAA
TAFRWI
TAF AMD
KRWI 271519Z 2715/2812 20008KT P6SM VCSH BKN050
     FM280200 20003KT P6SM BKN100
     FM281000 21003KT P6SM SCT007 BKN010
      TEMPO 2810/2812 4SM BR BKN007=



000
FTUS42 KRAH 271519 AAA
TAFRWI
TAF AMD
KRWI 271519Z 2715/2812 20008KT P6SM VCSH BKN050
     FM280200 20003KT P6SM BKN100
     FM281000 21003KT P6SM SCT007 BKN010
      TEMPO 2810/2812 4SM BR BKN007=



000
FTUS42 KRAH 271517 AAA
TAFRDU
TAF AMD
KRDU 271517Z 2715/2812 17005KT P6SM SCT018
      TEMPO 2715/2718 BKN018
     FM271800 22009KT P6SM BKN050
     FM280000 19005KT P6SM SCT050 BKN200
     FM281000 21003KT P6SM SCT007 BKN010
      TEMPO 2810/2812 4SM BR BKN007=



000
FTUS42 KRAH 271517 AAA
TAFRDU
TAF AMD
KRDU 271517Z 2715/2812 17005KT P6SM SCT018
      TEMPO 2715/2718 BKN018
     FM271800 22009KT P6SM BKN050
     FM280000 19005KT P6SM SCT050 BKN200
     FM281000 21003KT P6SM SCT007 BKN010
      TEMPO 2810/2812 4SM BR BKN007=



000
FTUS42 KRAH 271517 AAA
TAFRDU
TAF AMD
KRDU 271517Z 2715/2812 17005KT P6SM SCT018
      TEMPO 2715/2718 BKN018
     FM271800 22009KT P6SM BKN050
     FM280000 19005KT P6SM SCT050 BKN200
     FM281000 21003KT P6SM SCT007 BKN010
      TEMPO 2810/2812 4SM BR BKN007=



000
FTUS42 KRAH 271446 AAA
TAFGSO
TAF AMD
KGSO 271446Z 2715/2812 19004KT P6SM SCT018 BKN100
      TEMPO 2715/2718 BKN018
     FM271800 22008KT P6SM BKN040 BKN250
     FM280100 21005KT P6SM SCT050 BKN250
     FM281000 22003KT P6SM SCT007 BKN010
      TEMPO 2810/2812 4SM BR BKN007=



000
FTUS42 KRAH 271446 AAA
TAFGSO
TAF AMD
KGSO 271446Z 2715/2812 19004KT P6SM SCT018 BKN100
      TEMPO 2715/2718 BKN018
     FM271800 22008KT P6SM BKN040 BKN250
     FM280100 21005KT P6SM SCT050 BKN250
     FM281000 22003KT P6SM SCT007 BKN010
      TEMPO 2810/2812 4SM BR BKN007=



000
FTUS42 KRAH 271446 AAA
TAFGSO
TAF AMD
KGSO 271446Z 2715/2812 19004KT P6SM SCT018 BKN100
      TEMPO 2715/2718 BKN018
     FM271800 22008KT P6SM BKN040 BKN250
     FM280100 21005KT P6SM SCT050 BKN250
     FM281000 22003KT P6SM SCT007 BKN010
      TEMPO 2810/2812 4SM BR BKN007=



000
FTUS42 KRAH 271446 AAA
TAFINT
TAF AMD
KINT 271446Z 2715/2812 19004KT P6SM SCT015 BKN100
      TEMPO 2715/2718 BKN015
     FM271800 22008KT P6SM BKN040 BKN250
     FM280100 21005KT P6SM SCT050 BKN250
     FM281000 21003KT P6SM SCT007 BKN010
      TEMPO 2810/2812 4SM BR BKN007=



000
FTUS42 KRAH 271446 AAA
TAFINT
TAF AMD
KINT 271446Z 2715/2812 19004KT P6SM SCT015 BKN100
      TEMPO 2715/2718 BKN015
     FM271800 22008KT P6SM BKN040 BKN250
     FM280100 21005KT P6SM SCT050 BKN250
     FM281000 21003KT P6SM SCT007 BKN010
      TEMPO 2810/2812 4SM BR BKN007=



000
FTUS42 KRAH 271446 AAA
TAFINT
TAF AMD
KINT 271446Z 2715/2812 19004KT P6SM SCT015 BKN100
      TEMPO 2715/2718 BKN015
     FM271800 22008KT P6SM BKN040 BKN250
     FM280100 21005KT P6SM SCT050 BKN250
     FM281000 21003KT P6SM SCT007 BKN010
      TEMPO 2810/2812 4SM BR BKN007=



000
FTUS42 KRAH 271446 AAA
TAFINT
TAF AMD
KINT 271446Z 2715/2812 19004KT P6SM SCT015 BKN100
      TEMPO 2715/2718 BKN015
     FM271800 22008KT P6SM BKN040 BKN250
     FM280100 21005KT P6SM SCT050 BKN250
     FM281000 21003KT P6SM SCT007 BKN010
      TEMPO 2810/2812 4SM BR BKN007=



000
FTUS42 KRAH 271120
TAFGSO
TAF
KGSO 271120Z 2712/2812 19004KT P6SM SCT007 BKN100
      TEMPO 2712/2714 4SM BR BKN007
     FM271600 22008KT P6SM BKN040 BKN250
     FM280100 21005KT P6SM SCT050 BKN250
     FM281000 22003KT P6SM SCT007 BKN010
      TEMPO 2810/2812 4SM BR BKN007=



000
FTUS42 KRAH 271120
TAFGSO
TAF
KGSO 271120Z 2712/2812 19004KT P6SM SCT007 BKN100
      TEMPO 2712/2714 4SM BR BKN007
     FM271600 22008KT P6SM BKN040 BKN250
     FM280100 21005KT P6SM SCT050 BKN250
     FM281000 22003KT P6SM SCT007 BKN010
      TEMPO 2810/2812 4SM BR BKN007=



000
FTUS42 KRAH 271120
TAFINT
TAF
KINT 271120Z 2712/2812 19004KT P6SM SCT007 BKN100
      TEMPO 2712/2714 4SM BR BKN007
     FM271600 22008KT P6SM BKN040 BKN250
     FM280100 21005KT P6SM SCT050 BKN250
     FM281000 21003KT P6SM SCT007 BKN010
      TEMPO 2810/2812 4SM BR BKN007=



000
FTUS42 KRAH 271120
TAFRDU
TAF
KRDU 271120Z 2712/2812 17005KT 6SM BR SCT008 BKN015
      TEMPO 2712/2714 4SM BR BKN007
     FM271530 22009KT P6SM BKN050
     FM280000 19005KT P6SM SCT050 BKN200
     FM281000 21003KT P6SM SCT007 BKN010
      TEMPO 2810/2812 4SM BR BKN007=



000
FTUS42 KRAH 271120
TAFINT
TAF
KINT 271120Z 2712/2812 19004KT P6SM SCT007 BKN100
      TEMPO 2712/2714 4SM BR BKN007
     FM271600 22008KT P6SM BKN040 BKN250
     FM280100 21005KT P6SM SCT050 BKN250
     FM281000 21003KT P6SM SCT007 BKN010
      TEMPO 2810/2812 4SM BR BKN007=



000
FTUS42 KRAH 271120
TAFGSO
TAF
KGSO 271120Z 2712/2812 19004KT P6SM SCT007 BKN100
      TEMPO 2712/2714 4SM BR BKN007
     FM271600 22008KT P6SM BKN040 BKN250
     FM280100 21005KT P6SM SCT050 BKN250
     FM281000 22003KT P6SM SCT007 BKN010
      TEMPO 2810/2812 4SM BR BKN007=



000
FTUS42 KRAH 271120
TAFRWI
TAF
KRWI 271120Z 2712/2812 17004KT 6SM BR SCT009 BKN015
      TEMPO 2712/2714 3SM BR BKN007
     FM271500 20008KT P6SM BKN050
     FM281000 21003KT P6SM SCT007 BKN010
      TEMPO 2810/2812 4SM BR BKN007=



000
FTUS42 KRAH 271120
TAFFAY
TAF
KFAY 271120Z 2712/2812 17004KT 6SM BR SCT009 BKN015
      TEMPO 2712/2714 3SM BR BKN007
     FM271500 20008KT P6SM BKN050
     FM281000 21003KT P6SM SCT007 BKN010
      TEMPO 2810/2812 4SM BR BKN007=



000
FTUS42 KRAH 271120
TAFRDU
TAF
KRDU 271120Z 2712/2812 17005KT 6SM BR SCT008 BKN015
      TEMPO 2712/2714 4SM BR BKN007
     FM271530 22009KT P6SM BKN050
     FM280000 19005KT P6SM SCT050 BKN200
     FM281000 21003KT P6SM SCT007 BKN010
      TEMPO 2810/2812 4SM BR BKN007=



000
FTUS42 KRAH 271120
TAFGSO
TAF
KGSO 271120Z 2712/2812 19004KT P6SM SCT007 BKN100
      TEMPO 2712/2714 4SM BR BKN007
     FM271600 22008KT P6SM BKN040 BKN250
     FM280100 21005KT P6SM SCT050 BKN250
     FM281000 22003KT P6SM SCT007 BKN010
      TEMPO 2810/2812 4SM BR BKN007=



000
FTUS42 KRAH 271120
TAFINT
TAF
KINT 271120Z 2712/2812 19004KT P6SM SCT007 BKN100
      TEMPO 2712/2714 4SM BR BKN007
     FM271600 22008KT P6SM BKN040 BKN250
     FM280100 21005KT P6SM SCT050 BKN250
     FM281000 21003KT P6SM SCT007 BKN010
      TEMPO 2810/2812 4SM BR BKN007=



000
FTUS42 KRAH 271120
TAFINT
TAF
KINT 271120Z 2712/2812 19004KT P6SM SCT007 BKN100
      TEMPO 2712/2714 4SM BR BKN007
     FM271600 22008KT P6SM BKN040 BKN250
     FM280100 21005KT P6SM SCT050 BKN250
     FM281000 21003KT P6SM SCT007 BKN010
      TEMPO 2810/2812 4SM BR BKN007=



000
FTUS42 KRAH 271120
TAFFAY
TAF
KFAY 271120Z 2712/2812 17004KT 6SM BR SCT009 BKN015
      TEMPO 2712/2714 3SM BR BKN007
     FM271500 20008KT P6SM BKN050
     FM281000 21003KT P6SM SCT007 BKN010
      TEMPO 2810/2812 4SM BR BKN007=



000
FTUS42 KRAH 271120
TAFFAY
TAF
KFAY 271120Z 2712/2812 17004KT 6SM BR SCT009 BKN015
      TEMPO 2712/2714 3SM BR BKN007
     FM271500 20008KT P6SM BKN050
     FM281000 21003KT P6SM SCT007 BKN010
      TEMPO 2810/2812 4SM BR BKN007=



000
FTUS42 KRAH 271120
TAFRDU
TAF
KRDU 271120Z 2712/2812 17005KT 6SM BR SCT008 BKN015
      TEMPO 2712/2714 4SM BR BKN007
     FM271530 22009KT P6SM BKN050
     FM280000 19005KT P6SM SCT050 BKN200
     FM281000 21003KT P6SM SCT007 BKN010
      TEMPO 2810/2812 4SM BR BKN007=



000
FTUS42 KRAH 271120
TAFRWI
TAF
KRWI 271120Z 2712/2812 17004KT 6SM BR SCT009 BKN015
      TEMPO 2712/2714 3SM BR BKN007
     FM271500 20008KT P6SM BKN050
     FM281000 21003KT P6SM SCT007 BKN010
      TEMPO 2810/2812 4SM BR BKN007=



000
FTUS42 KRAH 271120
TAFFAY
TAF
KFAY 271120Z 2712/2812 17004KT 6SM BR SCT009 BKN015
      TEMPO 2712/2714 3SM BR BKN007
     FM271500 20008KT P6SM BKN050
     FM281000 21003KT P6SM SCT007 BKN010
      TEMPO 2810/2812 4SM BR BKN007=



000
FTUS42 KRAH 271120
TAFRWI
TAF
KRWI 271120Z 2712/2812 17004KT 6SM BR SCT009 BKN015
      TEMPO 2712/2714 3SM BR BKN007
     FM271500 20008KT P6SM BKN050
     FM281000 21003KT P6SM SCT007 BKN010
      TEMPO 2810/2812 4SM BR BKN007=



000
FTUS42 KRAH 271120
TAFRDU
TAF
KRDU 271120Z 2712/2812 17005KT 6SM BR SCT008 BKN015
      TEMPO 2712/2714 4SM BR BKN007
     FM271530 22009KT P6SM BKN050
     FM280000 19005KT P6SM SCT050 BKN200
     FM281000 21003KT P6SM SCT007 BKN010
      TEMPO 2810/2812 4SM BR BKN007=



000
FTUS42 KRAH 271120
TAFRWI
TAF
KRWI 271120Z 2712/2812 17004KT 6SM BR SCT009 BKN015
      TEMPO 2712/2714 3SM BR BKN007
     FM271500 20008KT P6SM BKN050
     FM281000 21003KT P6SM SCT007 BKN010
      TEMPO 2810/2812 4SM BR BKN007=



000
FTUS42 KRAH 271001 AAB
TAFRDU
TAF AMD
KRDU 271001Z 2710/2806 17005KT 6SM BR BKN020
      TEMPO 2711/2713 4SM BR BKN007
     FM271530 22009KT P6SM BKN040
     FM280000 19005KT P6SM OVC100=



000
FTUS42 KRAH 271001 AAB
TAFRDU
TAF AMD
KRDU 271001Z 2710/2806 17005KT 6SM BR BKN020
      TEMPO 2711/2713 4SM BR BKN007
     FM271530 22009KT P6SM BKN040
     FM280000 19005KT P6SM OVC100=



000
FTUS42 KRAH 271001 AAB
TAFRDU
TAF AMD
KRDU 271001Z 2710/2806 17005KT 6SM BR BKN020
      TEMPO 2711/2713 4SM BR BKN007
     FM271530 22009KT P6SM BKN040
     FM280000 19005KT P6SM OVC100=



000
FTUS42 KRAH 271001 AAB
TAFRDU
TAF AMD
KRDU 271001Z 2710/2806 17005KT 6SM BR BKN020
      TEMPO 2711/2713 4SM BR BKN007
     FM271530 22009KT P6SM BKN040
     FM280000 19005KT P6SM OVC100=



000
FTUS42 KRAH 270931 AAA
TAFRDU
TAF AMD
KRDU 270931Z 2710/2806 17009KT P6SM SCT020 SCT050 BKN100
     FM271100 20007KT 6SM BR BKN020
      TEMPO 2711/2713 4SM BR BKN007
     FM271530 22009KT P6SM BKN040
     FM280000 19005KT P6SM OVC100=



000
FTUS42 KRAH 270931 AAA
TAFRDU
TAF AMD
KRDU 270931Z 2710/2806 17009KT P6SM SCT020 SCT050 BKN100
     FM271100 20007KT 6SM BR BKN020
      TEMPO 2711/2713 4SM BR BKN007
     FM271530 22009KT P6SM BKN040
     FM280000 19005KT P6SM OVC100=



000
FTUS42 KRAH 270931 AAA
TAFFAY
TAF AMD
KFAY 270931Z 2710/2806 17004KT 6SM BR SCT009 BKN020
      TEMPO 2710/2713 2SM BR BKN007
     FM271500 20008KT P6SM BKN050
     FM280000 19005KT P6SM OVC100=



    US Dept of Commerce
    National Oceanic and Atmospheric Administration
    National Weather Service
    1325 East West Highway
    Silver Spring, MD 20910
    Page Author: NWS Internet Services Team
Disclaimer
Information Quality
Credits
Glossary
Privacy Policy
Freedom of Information Act (FOIA)
About Us
Career Opportunities